<?xml version="1.0" encoding="UTF-8" standalone="no" ?>
<gpx xmlns="http://www.topografix.com/GPX/1/1" xmlns:xsi="http://www.w3.org/2001/XMLSchema-instance" xsi:schemaLocation="http://www.topografix.com/GPX/1/1 http://www.topografix.com/GPX/1/1/gpx.xsd" version="1.1" creator="VisuGPX - https://www.visugpx.com">
  <metadata>
    <name>trace retour bivouac Panissières</name>
  </metadata>
  <trk>
    <name><![CDATA[retour bivouac Panissières par Ruines Donzy-21803348]]></name>
    <extensions>
      <line xmlns="http://www.topografix.com/GPX/gpx_style/0/2">
        <color>0000FF</color>
        <width>4</width>
      </line>
    </extensions>
    <trkseg>
      <trkpt lat="45.82044" lon="4.34503">
        <ele>588</ele>
        <time>2025-07-22T22:42:53Z</time>
      </trkpt>
      <trkpt lat="45.8206" lon="4.34463">
        <ele>585</ele>
        <time>2025-07-22T22:43:19Z</time>
      </trkpt>
      <trkpt lat="45.82061" lon="4.34457">
        <ele>584</ele>
        <time>2025-07-22T22:43:22Z</time>
      </trkpt>
      <trkpt lat="45.82066" lon="4.34429">
        <ele>579</ele>
        <time>2025-07-22T22:43:38Z</time>
      </trkpt>
      <trkpt lat="45.82067" lon="4.34414">
        <ele>576</ele>
        <time>2025-07-22T22:43:47Z</time>
      </trkpt>
      <trkpt lat="45.82067" lon="4.34366">
        <ele>574</ele>
        <time>2025-07-22T22:44:13Z</time>
      </trkpt>
      <trkpt lat="45.82063" lon="4.34338">
        <ele>572</ele>
        <time>2025-07-22T22:44:29Z</time>
      </trkpt>
      <trkpt lat="45.82063" lon="4.34316">
        <ele>571</ele>
        <time>2025-07-22T22:44:42Z</time>
      </trkpt>
      <trkpt lat="45.82061" lon="4.34291">
        <ele>570</ele>
        <time>2025-07-22T22:44:56Z</time>
      </trkpt>
      <trkpt lat="45.82063" lon="4.34272">
        <ele>569</ele>
        <time>2025-07-22T22:45:06Z</time>
      </trkpt>
      <trkpt lat="45.82069" lon="4.34254">
        <ele>568</ele>
        <time>2025-07-22T22:45:18Z</time>
      </trkpt>
      <trkpt lat="45.82076" lon="4.34213">
        <ele>567</ele>
        <time>2025-07-22T22:45:41Z</time>
      </trkpt>
      <trkpt lat="45.82078" lon="4.3419">
        <ele>567</ele>
        <time>2025-07-22T22:45:54Z</time>
      </trkpt>
      <trkpt lat="45.82079" lon="4.34163">
        <ele>567</ele>
        <time>2025-07-22T22:46:09Z</time>
      </trkpt>
      <trkpt lat="45.82077" lon="4.34146">
        <ele>568</ele>
        <time>2025-07-22T22:46:19Z</time>
      </trkpt>
      <trkpt lat="45.82035" lon="4.34086">
        <ele>567</ele>
        <time>2025-07-22T22:47:06Z</time>
      </trkpt>
      <trkpt lat="45.82019" lon="4.34058">
        <ele>567</ele>
        <time>2025-07-22T22:47:26Z</time>
      </trkpt>
      <trkpt lat="45.81989" lon="4.33997">
        <ele>566</ele>
        <time>2025-07-22T22:48:08Z</time>
      </trkpt>
      <trkpt lat="45.8198" lon="4.33981">
        <ele>567</ele>
        <time>2025-07-22T22:48:20Z</time>
      </trkpt>
      <trkpt lat="45.81968" lon="4.33966">
        <ele>568</ele>
        <time>2025-07-22T22:48:32Z</time>
      </trkpt>
      <trkpt lat="45.81953" lon="4.33956">
        <ele>568</ele>
        <time>2025-07-22T22:48:46Z</time>
      </trkpt>
      <trkpt lat="45.81938" lon="4.33942">
        <ele>569</ele>
        <time>2025-07-22T22:49:00Z</time>
      </trkpt>
      <trkpt lat="45.81912" lon="4.33908">
        <ele>570</ele>
        <time>2025-07-22T22:49:28Z</time>
      </trkpt>
      <trkpt lat="45.81902" lon="4.3389">
        <ele>571</ele>
        <time>2025-07-22T22:49:41Z</time>
      </trkpt>
      <trkpt lat="45.81894" lon="4.33859">
        <ele>572</ele>
        <time>2025-07-22T22:49:59Z</time>
      </trkpt>
      <trkpt lat="45.81892" lon="4.33854">
        <ele>572</ele>
        <time>2025-07-22T22:50:03Z</time>
      </trkpt>
      <trkpt lat="45.81876" lon="4.33823">
        <ele>572</ele>
        <time>2025-07-22T22:50:24Z</time>
      </trkpt>
      <trkpt lat="45.81852" lon="4.33765">
        <ele>571</ele>
        <time>2025-07-22T22:51:02Z</time>
      </trkpt>
      <trkpt lat="45.81841" lon="4.33751">
        <ele>571</ele>
        <time>2025-07-22T22:51:14Z</time>
      </trkpt>
      <trkpt lat="45.81829" lon="4.33743">
        <ele>571</ele>
        <time>2025-07-22T22:51:24Z</time>
      </trkpt>
      <trkpt lat="45.81791" lon="4.33733">
        <ele>573</ele>
        <time>2025-07-22T22:51:55Z</time>
      </trkpt>
      <trkpt lat="45.8178" lon="4.33731">
        <ele>573</ele>
        <time>2025-07-22T22:52:04Z</time>
      </trkpt>
      <trkpt lat="45.81777" lon="4.3372">
        <ele>575</ele>
        <time>2025-07-22T22:52:11Z</time>
      </trkpt>
      <trkpt lat="45.8176" lon="4.33698">
        <ele>578</ele>
        <time>2025-07-22T22:52:29Z</time>
      </trkpt>
      <trkpt lat="45.81726" lon="4.33643">
        <ele>583</ele>
        <time>2025-07-22T22:53:10Z</time>
      </trkpt>
      <trkpt lat="45.81714" lon="4.33612">
        <ele>585</ele>
        <time>2025-07-22T22:53:30Z</time>
      </trkpt>
      <trkpt lat="45.81712" lon="4.33601">
        <ele>586</ele>
        <time>2025-07-22T22:53:36Z</time>
      </trkpt>
      <trkpt lat="45.81712" lon="4.33576">
        <ele>589</ele>
        <time>2025-07-22T22:53:50Z</time>
      </trkpt>
      <trkpt lat="45.81723" lon="4.33537">
        <ele>591</ele>
        <time>2025-07-22T22:54:13Z</time>
      </trkpt>
      <trkpt lat="45.8176" lon="4.33446">
        <ele>601</ele>
        <time>2025-07-22T22:55:12Z</time>
      </trkpt>
      <trkpt lat="45.81765" lon="4.33422">
        <ele>603</ele>
        <time>2025-07-22T22:55:26Z</time>
      </trkpt>
      <trkpt lat="45.81765" lon="4.33378">
        <ele>605</ele>
        <time>2025-07-22T22:55:51Z</time>
      </trkpt>
      <trkpt lat="45.81768" lon="4.33343">
        <ele>607</ele>
        <time>2025-07-22T22:56:10Z</time>
      </trkpt>
      <trkpt lat="45.81778" lon="4.3328">
        <ele>610</ele>
        <time>2025-07-22T22:56:47Z</time>
      </trkpt>
      <trkpt lat="45.81781" lon="4.33268">
        <ele>611</ele>
        <time>2025-07-22T22:56:54Z</time>
      </trkpt>
      <trkpt lat="45.81792" lon="4.33193">
        <ele>613</ele>
        <time>2025-07-22T22:57:36Z</time>
      </trkpt>
      <trkpt lat="45.81795" lon="4.3317">
        <ele>614</ele>
        <time>2025-07-22T22:57:49Z</time>
      </trkpt>
      <trkpt lat="45.81797" lon="4.33144">
        <ele>615</ele>
        <time>2025-07-22T22:58:04Z</time>
      </trkpt>
      <trkpt lat="45.81797" lon="4.33115">
        <ele>617</ele>
        <time>2025-07-22T22:58:20Z</time>
      </trkpt>
      <trkpt lat="45.81794" lon="4.3309">
        <ele>618</ele>
        <time>2025-07-22T22:58:34Z</time>
      </trkpt>
      <trkpt lat="45.81786" lon="4.33069">
        <ele>618</ele>
        <time>2025-07-22T22:58:48Z</time>
      </trkpt>
      <trkpt lat="45.81773" lon="4.33051">
        <ele>618</ele>
        <time>2025-07-22T22:59:02Z</time>
      </trkpt>
      <trkpt lat="45.81743" lon="4.33024">
        <ele>617</ele>
        <time>2025-07-22T22:59:31Z</time>
      </trkpt>
      <trkpt lat="45.81716" lon="4.32995">
        <ele>618</ele>
        <time>2025-07-22T22:59:58Z</time>
      </trkpt>
      <trkpt lat="45.81693" lon="4.32966">
        <ele>618</ele>
        <time>2025-07-22T23:00:22Z</time>
      </trkpt>
      <trkpt lat="45.81686" lon="4.32953">
        <ele>618</ele>
        <time>2025-07-22T23:00:31Z</time>
      </trkpt>
      <trkpt lat="45.81684" lon="4.32953">
        <ele>618</ele>
        <time>2025-07-22T23:00:33Z</time>
      </trkpt>
      <trkpt lat="45.81676" lon="4.32943">
        <ele>618</ele>
        <time>2025-07-22T23:00:41Z</time>
      </trkpt>
      <trkpt lat="45.81654" lon="4.32902">
        <ele>617</ele>
        <time>2025-07-22T23:01:10Z</time>
      </trkpt>
      <trkpt lat="45.81629" lon="4.32849">
        <ele>613</ele>
        <time>2025-07-22T23:01:46Z</time>
      </trkpt>
      <trkpt lat="45.81582" lon="4.32757">
        <ele>604</ele>
        <time>2025-07-22T23:02:50Z</time>
      </trkpt>
      <trkpt lat="45.81485" lon="4.32596">
        <ele>595</ele>
        <time>2025-07-22T23:04:48Z</time>
      </trkpt>
      <trkpt lat="45.81455" lon="4.32544">
        <ele>590</ele>
        <time>2025-07-22T23:05:26Z</time>
      </trkpt>
      <trkpt lat="45.81452" lon="4.32539">
        <ele>590</ele>
        <time>2025-07-22T23:05:30Z</time>
      </trkpt>
      <trkpt lat="45.81448" lon="4.32535">
        <ele>589</ele>
        <time>2025-07-22T23:05:34Z</time>
      </trkpt>
      <trkpt lat="45.81442" lon="4.32532">
        <ele>589</ele>
        <time>2025-07-22T23:05:39Z</time>
      </trkpt>
      <trkpt lat="45.81439" lon="4.32532">
        <ele>589</ele>
        <time>2025-07-22T23:05:41Z</time>
      </trkpt>
      <trkpt lat="45.81432" lon="4.32534">
        <ele>590</ele>
        <time>2025-07-22T23:05:47Z</time>
      </trkpt>
      <trkpt lat="45.81415" lon="4.32541">
        <ele>590</ele>
        <time>2025-07-22T23:06:01Z</time>
      </trkpt>
      <trkpt lat="45.81391" lon="4.32555">
        <ele>589</ele>
        <time>2025-07-22T23:06:22Z</time>
      </trkpt>
      <trkpt lat="45.81375" lon="4.32565">
        <ele>588</ele>
        <time>2025-07-22T23:06:36Z</time>
      </trkpt>
      <trkpt lat="45.81355" lon="4.32551">
        <ele>586</ele>
        <time>2025-07-22T23:06:53Z</time>
      </trkpt>
      <trkpt lat="45.81336" lon="4.32522">
        <ele>585</ele>
        <time>2025-07-22T23:07:16Z</time>
      </trkpt>
      <trkpt lat="45.81328" lon="4.32511">
        <ele>585</ele>
        <time>2025-07-22T23:07:25Z</time>
      </trkpt>
      <trkpt lat="45.81324" lon="4.32509">
        <ele>584</ele>
        <time>2025-07-22T23:07:28Z</time>
      </trkpt>
      <trkpt lat="45.81321" lon="4.32509">
        <ele>584</ele>
        <time>2025-07-22T23:07:30Z</time>
      </trkpt>
      <trkpt lat="45.81313" lon="4.32509">
        <ele>584</ele>
        <time>2025-07-22T23:07:37Z</time>
      </trkpt>
      <trkpt lat="45.8128" lon="4.32514">
        <ele>581</ele>
        <time>2025-07-22T23:08:03Z</time>
      </trkpt>
      <trkpt lat="45.81262" lon="4.32513">
        <ele>580</ele>
        <time>2025-07-22T23:08:18Z</time>
      </trkpt>
      <trkpt lat="45.81188" lon="4.32503">
        <ele>578</ele>
        <time>2025-07-22T23:09:17Z</time>
      </trkpt>
      <trkpt lat="45.8114" lon="4.32489">
        <ele>576</ele>
        <time>2025-07-22T23:09:57Z</time>
      </trkpt>
      <trkpt lat="45.80924" lon="4.32418">
        <ele>559</ele>
        <time>2025-07-22T23:12:54Z</time>
      </trkpt>
      <trkpt lat="45.80846" lon="4.32409">
        <ele>551</ele>
        <time>2025-07-22T23:13:57Z</time>
      </trkpt>
      <trkpt lat="45.80845" lon="4.32408">
        <ele>550</ele>
        <time>2025-07-22T23:13:58Z</time>
      </trkpt>
      <trkpt lat="45.80838" lon="4.32398">
        <ele>550</ele>
        <time>2025-07-22T23:14:05Z</time>
      </trkpt>
      <trkpt lat="45.80819" lon="4.32377">
        <ele>547</ele>
        <time>2025-07-22T23:14:25Z</time>
      </trkpt>
      <trkpt lat="45.80799" lon="4.32357">
        <ele>545</ele>
        <time>2025-07-22T23:14:44Z</time>
      </trkpt>
      <trkpt lat="45.80744" lon="4.32255">
        <ele>537</ele>
        <time>2025-07-22T23:15:56Z</time>
      </trkpt>
      <trkpt lat="45.80737" lon="4.3223">
        <ele>536</ele>
        <time>2025-07-22T23:16:11Z</time>
      </trkpt>
      <trkpt lat="45.80732" lon="4.32205">
        <ele>535</ele>
        <time>2025-07-22T23:16:26Z</time>
      </trkpt>
      <trkpt lat="45.80734" lon="4.32169">
        <ele>534</ele>
        <time>2025-07-22T23:16:46Z</time>
      </trkpt>
      <trkpt lat="45.80741" lon="4.32133">
        <ele>532</ele>
        <time>2025-07-22T23:17:07Z</time>
      </trkpt>
      <trkpt lat="45.80747" lon="4.32107">
        <ele>530</ele>
        <time>2025-07-22T23:17:22Z</time>
      </trkpt>
      <trkpt lat="45.80748" lon="4.32104">
        <ele>530</ele>
        <time>2025-07-22T23:17:24Z</time>
      </trkpt>
      <trkpt lat="45.8075" lon="4.32082">
        <ele>528</ele>
        <time>2025-07-22T23:17:36Z</time>
      </trkpt>
      <trkpt lat="45.80749" lon="4.32063">
        <ele>527</ele>
        <time>2025-07-22T23:17:47Z</time>
      </trkpt>
      <trkpt lat="45.80745" lon="4.32046">
        <ele>526</ele>
        <time>2025-07-22T23:17:57Z</time>
      </trkpt>
      <trkpt lat="45.80744" lon="4.32033">
        <ele>526</ele>
        <time>2025-07-22T23:18:04Z</time>
      </trkpt>
      <trkpt lat="45.80752" lon="4.32003">
        <ele>524</ele>
        <time>2025-07-22T23:18:22Z</time>
      </trkpt>
      <trkpt lat="45.80766" lon="4.31971">
        <ele>524</ele>
        <time>2025-07-22T23:18:43Z</time>
      </trkpt>
      <trkpt lat="45.80778" lon="4.31954">
        <ele>525</ele>
        <time>2025-07-22T23:18:57Z</time>
      </trkpt>
      <trkpt lat="45.80774" lon="4.31918">
        <ele>524</ele>
        <time>2025-07-22T23:19:17Z</time>
      </trkpt>
      <trkpt lat="45.80768" lon="4.31911">
        <ele>524</ele>
        <time>2025-07-22T23:19:23Z</time>
      </trkpt>
      <trkpt lat="45.80718" lon="4.31843">
        <ele>525</ele>
        <time>2025-07-22T23:20:18Z</time>
      </trkpt>
      <trkpt lat="45.80693" lon="4.31809">
        <ele>523</ele>
        <time>2025-07-22T23:20:46Z</time>
      </trkpt>
      <trkpt lat="45.80678" lon="4.31802">
        <ele>522</ele>
        <time>2025-07-22T23:20:59Z</time>
      </trkpt>
      <trkpt lat="45.80673" lon="4.31803">
        <ele>522</ele>
        <time>2025-07-22T23:21:03Z</time>
      </trkpt>
      <trkpt lat="45.80659" lon="4.31807">
        <ele>522</ele>
        <time>2025-07-22T23:21:14Z</time>
      </trkpt>
      <trkpt lat="45.80648" lon="4.31816">
        <ele>524</ele>
        <time>2025-07-22T23:21:24Z</time>
      </trkpt>
      <trkpt lat="45.80635" lon="4.31831">
        <ele>527</ele>
        <time>2025-07-22T23:21:38Z</time>
      </trkpt>
      <trkpt lat="45.80574" lon="4.31785">
        <ele>530</ele>
        <time>2025-07-22T23:22:33Z</time>
      </trkpt>
      <trkpt lat="45.80554" lon="4.31777">
        <ele>529</ele>
        <time>2025-07-22T23:22:49Z</time>
      </trkpt>
      <trkpt lat="45.80524" lon="4.31769">
        <ele>529</ele>
        <time>2025-07-22T23:23:14Z</time>
      </trkpt>
      <trkpt lat="45.80523" lon="4.31771">
        <ele>529</ele>
        <time>2025-07-22T23:23:15Z</time>
      </trkpt>
      <trkpt lat="45.80521" lon="4.31774">
        <ele>530</ele>
        <time>2025-07-22T23:23:18Z</time>
      </trkpt>
      <trkpt lat="45.80524" lon="4.31777">
        <ele>530</ele>
        <time>2025-07-22T23:23:20Z</time>
      </trkpt>
      <trkpt lat="45.80521" lon="4.31774">
        <ele>530</ele>
        <time>2025-07-22T23:23:23Z</time>
      </trkpt>
      <trkpt lat="45.80523" lon="4.31771">
        <ele>529</ele>
        <time>2025-07-22T23:23:26Z</time>
      </trkpt>
      <trkpt lat="45.80495" lon="4.31757">
        <ele>528</ele>
        <time>2025-07-22T23:23:49Z</time>
      </trkpt>
      <trkpt lat="45.80451" lon="4.31668">
        <ele>520</ele>
        <time>2025-07-22T23:24:50Z</time>
      </trkpt>
      <trkpt lat="45.80454" lon="4.3166">
        <ele>519</ele>
        <time>2025-07-22T23:24:55Z</time>
      </trkpt>
      <trkpt lat="45.80462" lon="4.31649">
        <ele>518</ele>
        <time>2025-07-22T23:25:04Z</time>
      </trkpt>
      <trkpt lat="45.80467" lon="4.31623">
        <ele>517</ele>
        <time>2025-07-22T23:25:19Z</time>
      </trkpt>
      <trkpt lat="45.80469" lon="4.31617">
        <ele>517</ele>
        <time>2025-07-22T23:25:23Z</time>
      </trkpt>
      <trkpt lat="45.80476" lon="4.31581">
        <ele>518</ele>
        <time>2025-07-22T23:25:44Z</time>
      </trkpt>
      <trkpt lat="45.80475" lon="4.3157">
        <ele>519</ele>
        <time>2025-07-22T23:25:50Z</time>
      </trkpt>
      <trkpt lat="45.80465" lon="4.31558">
        <ele>520</ele>
        <time>2025-07-22T23:26:01Z</time>
      </trkpt>
      <trkpt lat="45.80422" lon="4.31533">
        <ele>520</ele>
        <time>2025-07-22T23:26:38Z</time>
      </trkpt>
      <trkpt lat="45.80392" lon="4.31521">
        <ele>521</ele>
        <time>2025-07-22T23:27:03Z</time>
      </trkpt>
      <trkpt lat="45.80363" lon="4.31507">
        <ele>521</ele>
        <time>2025-07-22T23:27:27Z</time>
      </trkpt>
      <trkpt lat="45.80311" lon="4.31459">
        <ele>525</ele>
        <time>2025-07-22T23:28:17Z</time>
      </trkpt>
      <trkpt lat="45.80271" lon="4.31439">
        <ele>526</ele>
        <time>2025-07-22T23:28:51Z</time>
      </trkpt>
      <trkpt lat="45.80243" lon="4.3142">
        <ele>528</ele>
        <time>2025-07-22T23:29:15Z</time>
      </trkpt>
      <trkpt lat="45.802" lon="4.31387">
        <ele>533</ele>
        <time>2025-07-22T23:29:54Z</time>
      </trkpt>
      <trkpt lat="45.80158" lon="4.3134">
        <ele>538</ele>
        <time>2025-07-22T23:30:37Z</time>
      </trkpt>
      <trkpt lat="45.8015" lon="4.31341">
        <ele>538</ele>
        <time>2025-07-22T23:30:43Z</time>
      </trkpt>
      <trkpt lat="45.80068" lon="4.31217">
        <ele>558</ele>
        <time>2025-07-22T23:32:19Z</time>
      </trkpt>
      <trkpt lat="45.798" lon="4.31288">
        <ele>541</ele>
        <time>2025-07-22T23:35:57Z</time>
      </trkpt>
      <trkpt lat="45.79767" lon="4.31291">
        <ele>541</ele>
        <time>2025-07-22T23:36:24Z</time>
      </trkpt>
      <trkpt lat="45.79735" lon="4.31291">
        <ele>543</ele>
        <time>2025-07-22T23:36:49Z</time>
      </trkpt>
      <trkpt lat="45.79676" lon="4.31305">
        <ele>544</ele>
        <time>2025-07-22T23:37:37Z</time>
      </trkpt>
      <trkpt lat="45.79645" lon="4.31319">
        <ele>541</ele>
        <time>2025-07-22T23:38:03Z</time>
      </trkpt>
      <trkpt lat="45.79617" lon="4.31329">
        <ele>539</ele>
        <time>2025-07-22T23:38:26Z</time>
      </trkpt>
      <trkpt lat="45.79566" lon="4.31346">
        <ele>535</ele>
        <time>2025-07-22T23:39:08Z</time>
      </trkpt>
      <trkpt lat="45.79551" lon="4.31351">
        <ele>533</ele>
        <time>2025-07-22T23:39:20Z</time>
      </trkpt>
      <trkpt lat="45.79409" lon="4.31338">
        <ele>531</ele>
        <time>2025-07-22T23:41:14Z</time>
      </trkpt>
      <trkpt lat="45.79188" lon="4.31414">
        <ele>509</ele>
        <time>2025-07-22T23:44:16Z</time>
      </trkpt>
      <trkpt lat="45.79183" lon="4.31413">
        <ele>510</ele>
        <time>2025-07-22T23:44:20Z</time>
      </trkpt>
      <trkpt lat="45.79169" lon="4.31395">
        <ele>514</ele>
        <time>2025-07-22T23:44:35Z</time>
      </trkpt>
      <trkpt lat="45.79167" lon="4.31395">
        <ele>514</ele>
        <time>2025-07-22T23:44:37Z</time>
      </trkpt>
      <trkpt lat="45.79137" lon="4.31386">
        <ele>518</ele>
        <time>2025-07-22T23:45:02Z</time>
      </trkpt>
      <trkpt lat="45.7911" lon="4.31388">
        <ele>519</ele>
        <time>2025-07-22T23:45:23Z</time>
      </trkpt>
      <trkpt lat="45.79054" lon="4.31407">
        <ele>518</ele>
        <time>2025-07-22T23:46:09Z</time>
      </trkpt>
      <trkpt lat="45.7905" lon="4.31412">
        <ele>517</ele>
        <time>2025-07-22T23:46:14Z</time>
      </trkpt>
      <trkpt lat="45.79026" lon="4.31418">
        <ele>517</ele>
        <time>2025-07-22T23:46:33Z</time>
      </trkpt>
      <trkpt lat="45.78993" lon="4.31418">
        <ele>518</ele>
        <time>2025-07-22T23:47:00Z</time>
      </trkpt>
      <trkpt lat="45.78955" lon="4.31431">
        <ele>514</ele>
        <time>2025-07-22T23:47:31Z</time>
      </trkpt>
      <trkpt lat="45.78947" lon="4.31438">
        <ele>513</ele>
        <time>2025-07-22T23:47:38Z</time>
      </trkpt>
      <trkpt lat="45.78931" lon="4.31442">
        <ele>511</ele>
        <time>2025-07-22T23:47:51Z</time>
      </trkpt>
      <trkpt lat="45.78911" lon="4.31429">
        <ele>513</ele>
        <time>2025-07-22T23:48:09Z</time>
      </trkpt>
      <trkpt lat="45.78881" lon="4.31416">
        <ele>513</ele>
        <time>2025-07-22T23:48:34Z</time>
      </trkpt>
      <trkpt lat="45.78873" lon="4.31409">
        <ele>513</ele>
        <time>2025-07-22T23:48:41Z</time>
      </trkpt>
      <trkpt lat="45.78844" lon="4.31407">
        <ele>512</ele>
        <time>2025-07-22T23:49:05Z</time>
      </trkpt>
      <trkpt lat="45.7883" lon="4.31404">
        <ele>512</ele>
        <time>2025-07-22T23:49:16Z</time>
      </trkpt>
      <trkpt lat="45.78819" lon="4.31406">
        <ele>511</ele>
        <time>2025-07-22T23:49:25Z</time>
      </trkpt>
      <trkpt lat="45.78781" lon="4.31406">
        <ele>511</ele>
        <time>2025-07-22T23:49:55Z</time>
      </trkpt>
      <trkpt lat="45.78771" lon="4.31405">
        <ele>511</ele>
        <time>2025-07-22T23:50:03Z</time>
      </trkpt>
      <trkpt lat="45.78757" lon="4.31406">
        <ele>511</ele>
        <time>2025-07-22T23:50:15Z</time>
      </trkpt>
      <trkpt lat="45.78736" lon="4.31404">
        <ele>511</ele>
        <time>2025-07-22T23:50:31Z</time>
      </trkpt>
      <trkpt lat="45.78702" lon="4.31391">
        <ele>513</ele>
        <time>2025-07-22T23:51:00Z</time>
      </trkpt>
      <trkpt lat="45.7869" lon="4.31382">
        <ele>514</ele>
        <time>2025-07-22T23:51:10Z</time>
      </trkpt>
      <trkpt lat="45.78671" lon="4.31373">
        <ele>516</ele>
        <time>2025-07-22T23:51:26Z</time>
      </trkpt>
      <trkpt lat="45.78667" lon="4.31371">
        <ele>517</ele>
        <time>2025-07-22T23:51:30Z</time>
      </trkpt>
      <trkpt lat="45.7864" lon="4.31373">
        <ele>518</ele>
        <time>2025-07-22T23:51:52Z</time>
      </trkpt>
      <trkpt lat="45.78619" lon="4.3138">
        <ele>518</ele>
        <time>2025-07-22T23:52:09Z</time>
      </trkpt>
      <trkpt lat="45.78609" lon="4.31388">
        <ele>516</ele>
        <time>2025-07-22T23:52:18Z</time>
      </trkpt>
      <trkpt lat="45.78573" lon="4.314">
        <ele>515</ele>
        <time>2025-07-22T23:52:48Z</time>
      </trkpt>
      <trkpt lat="45.78542" lon="4.31414">
        <ele>513</ele>
        <time>2025-07-22T23:53:14Z</time>
      </trkpt>
      <trkpt lat="45.78522" lon="4.31425">
        <ele>513</ele>
        <time>2025-07-22T23:53:31Z</time>
      </trkpt>
      <trkpt lat="45.78514" lon="4.31436">
        <ele>511</ele>
        <time>2025-07-22T23:53:40Z</time>
      </trkpt>
      <trkpt lat="45.78495" lon="4.31447">
        <ele>510</ele>
        <time>2025-07-22T23:53:56Z</time>
      </trkpt>
      <trkpt lat="45.7848" lon="4.31456">
        <ele>509</ele>
        <time>2025-07-22T23:54:09Z</time>
      </trkpt>
      <trkpt lat="45.78458" lon="4.31464">
        <ele>509</ele>
        <time>2025-07-22T23:54:27Z</time>
      </trkpt>
      <trkpt lat="45.7845" lon="4.31464">
        <ele>510</ele>
        <time>2025-07-22T23:54:34Z</time>
      </trkpt>
      <trkpt lat="45.78442" lon="4.31471">
        <ele>509</ele>
        <time>2025-07-22T23:54:41Z</time>
      </trkpt>
      <trkpt lat="45.78416" lon="4.31481">
        <ele>508</ele>
        <time>2025-07-22T23:55:03Z</time>
      </trkpt>
      <trkpt lat="45.78404" lon="4.31488">
        <ele>506</ele>
        <time>2025-07-22T23:55:13Z</time>
      </trkpt>
      <trkpt lat="45.78389" lon="4.31508">
        <ele>502</ele>
        <time>2025-07-22T23:55:29Z</time>
      </trkpt>
      <trkpt lat="45.78379" lon="4.31529">
        <ele>498</ele>
        <time>2025-07-22T23:55:44Z</time>
      </trkpt>
      <trkpt lat="45.78374" lon="4.31543">
        <ele>496</ele>
        <time>2025-07-22T23:55:52Z</time>
      </trkpt>
      <trkpt lat="45.7836" lon="4.31558">
        <ele>494</ele>
        <time>2025-07-22T23:56:06Z</time>
      </trkpt>
      <trkpt lat="45.78339" lon="4.31564">
        <ele>494</ele>
        <time>2025-07-22T23:56:24Z</time>
      </trkpt>
      <trkpt lat="45.78317" lon="4.31559">
        <ele>494</ele>
        <time>2025-07-22T23:56:41Z</time>
      </trkpt>
      <trkpt lat="45.78319" lon="4.3155">
        <ele>495</ele>
        <time>2025-07-22T23:56:47Z</time>
      </trkpt>
      <trkpt lat="45.78319" lon="4.31542">
        <ele>496</ele>
        <time>2025-07-22T23:56:51Z</time>
      </trkpt>
      <trkpt lat="45.78316" lon="4.31529">
        <ele>497</ele>
        <time>2025-07-22T23:56:59Z</time>
      </trkpt>
      <trkpt lat="45.7831" lon="4.31516">
        <ele>498</ele>
        <time>2025-07-22T23:57:07Z</time>
      </trkpt>
      <trkpt lat="45.78294" lon="4.31497">
        <ele>498</ele>
        <time>2025-07-22T23:57:24Z</time>
      </trkpt>
      <trkpt lat="45.78259" lon="4.31464">
        <ele>498</ele>
        <time>2025-07-22T23:57:58Z</time>
      </trkpt>
      <trkpt lat="45.78247" lon="4.3145">
        <ele>498</ele>
        <time>2025-07-22T23:58:10Z</time>
      </trkpt>
      <trkpt lat="45.78239" lon="4.31428">
        <ele>499</ele>
        <time>2025-07-22T23:58:24Z</time>
      </trkpt>
      <trkpt lat="45.78233" lon="4.31407">
        <ele>499</ele>
        <time>2025-07-22T23:58:37Z</time>
      </trkpt>
      <trkpt lat="45.78231" lon="4.31383">
        <ele>498</ele>
        <time>2025-07-22T23:58:50Z</time>
      </trkpt>
      <trkpt lat="45.78233" lon="4.31352">
        <ele>499</ele>
        <time>2025-07-22T23:59:07Z</time>
      </trkpt>
      <trkpt lat="45.78243" lon="4.31314">
        <ele>498</ele>
        <time>2025-07-22T23:59:30Z</time>
      </trkpt>
      <trkpt lat="45.78252" lon="4.31293">
        <ele>498</ele>
        <time>2025-07-22T23:59:44Z</time>
      </trkpt>
      <trkpt lat="45.78264" lon="4.31273">
        <ele>498</ele>
        <time>2025-07-22T23:59:59Z</time>
      </trkpt>
      <trkpt lat="45.78288" lon="4.3125">
        <ele>500</ele>
        <time>2025-07-23T00:00:22Z</time>
      </trkpt>
      <trkpt lat="45.78317" lon="4.31224">
        <ele>503</ele>
        <time>2025-07-23T00:00:49Z</time>
      </trkpt>
      <trkpt lat="45.78328" lon="4.3121">
        <ele>504</ele>
        <time>2025-07-23T00:01:01Z</time>
      </trkpt>
      <trkpt lat="45.78335" lon="4.31196">
        <ele>504</ele>
        <time>2025-07-23T00:01:11Z</time>
      </trkpt>
      <trkpt lat="45.7834" lon="4.31178">
        <ele>504</ele>
        <time>2025-07-23T00:01:21Z</time>
      </trkpt>
      <trkpt lat="45.78341" lon="4.31163">
        <ele>504</ele>
        <time>2025-07-23T00:01:30Z</time>
      </trkpt>
      <trkpt lat="45.78335" lon="4.31114">
        <ele>504</ele>
        <time>2025-07-23T00:01:58Z</time>
      </trkpt>
      <trkpt lat="45.78334" lon="4.31091">
        <ele>505</ele>
        <time>2025-07-23T00:02:10Z</time>
      </trkpt>
      <trkpt lat="45.78338" lon="4.31069">
        <ele>506</ele>
        <time>2025-07-23T00:02:23Z</time>
      </trkpt>
      <trkpt lat="45.78347" lon="4.31037">
        <ele>506</ele>
        <time>2025-07-23T00:02:42Z</time>
      </trkpt>
      <trkpt lat="45.78364" lon="4.3099">
        <ele>508</ele>
        <time>2025-07-23T00:03:12Z</time>
      </trkpt>
      <trkpt lat="45.78391" lon="4.30939">
        <ele>514</ele>
        <time>2025-07-23T00:03:48Z</time>
      </trkpt>
      <trkpt lat="45.78402" lon="4.30915">
        <ele>516</ele>
        <time>2025-07-23T00:04:04Z</time>
      </trkpt>
      <trkpt lat="45.78406" lon="4.30903">
        <ele>518</ele>
        <time>2025-07-23T00:04:11Z</time>
      </trkpt>
      <trkpt lat="45.78409" lon="4.30885">
        <ele>520</ele>
        <time>2025-07-23T00:04:21Z</time>
      </trkpt>
      <trkpt lat="45.78409" lon="4.30873">
        <ele>520</ele>
        <time>2025-07-23T00:04:28Z</time>
      </trkpt>
      <trkpt lat="45.78408" lon="4.30853">
        <ele>520</ele>
        <time>2025-07-23T00:04:39Z</time>
      </trkpt>
      <trkpt lat="45.78399" lon="4.3082">
        <ele>519</ele>
        <time>2025-07-23T00:04:59Z</time>
      </trkpt>
      <trkpt lat="45.78377" lon="4.30755">
        <ele>516</ele>
        <time>2025-07-23T00:05:39Z</time>
      </trkpt>
      <trkpt lat="45.78372" lon="4.30736">
        <ele>516</ele>
        <time>2025-07-23T00:05:51Z</time>
      </trkpt>
      <trkpt lat="45.78372" lon="4.30725">
        <ele>516</ele>
        <time>2025-07-23T00:05:57Z</time>
      </trkpt>
      <trkpt lat="45.78373" lon="4.30713">
        <ele>516</ele>
        <time>2025-07-23T00:06:04Z</time>
      </trkpt>
      <trkpt lat="45.78377" lon="4.30696">
        <ele>517</ele>
        <time>2025-07-23T00:06:14Z</time>
      </trkpt>
      <trkpt lat="45.7837" lon="4.30699">
        <ele>516</ele>
        <time>2025-07-23T00:06:20Z</time>
      </trkpt>
      <trkpt lat="45.78365" lon="4.307">
        <ele>515</ele>
        <time>2025-07-23T00:06:24Z</time>
      </trkpt>
      <trkpt lat="45.78363" lon="4.30699">
        <ele>515</ele>
        <time>2025-07-23T00:06:25Z</time>
      </trkpt>
      <trkpt lat="45.78329" lon="4.30678">
        <ele>513</ele>
        <time>2025-07-23T00:06:55Z</time>
      </trkpt>
      <trkpt lat="45.78303" lon="4.30663">
        <ele>513</ele>
        <time>2025-07-23T00:07:17Z</time>
      </trkpt>
      <trkpt lat="45.78296" lon="4.3066">
        <ele>512</ele>
        <time>2025-07-23T00:07:23Z</time>
      </trkpt>
      <trkpt lat="45.78287" lon="4.30663">
        <ele>512</ele>
        <time>2025-07-23T00:07:31Z</time>
      </trkpt>
      <trkpt lat="45.78267" lon="4.30679">
        <ele>510</ele>
        <time>2025-07-23T00:07:49Z</time>
      </trkpt>
      <trkpt lat="45.78264" lon="4.30683">
        <ele>510</ele>
        <time>2025-07-23T00:07:52Z</time>
      </trkpt>
      <trkpt lat="45.78283" lon="4.30709">
        <ele>508</ele>
        <time>2025-07-23T00:08:13Z</time>
      </trkpt>
      <trkpt lat="45.78299" lon="4.30737">
        <ele>506</ele>
        <time>2025-07-23T00:08:34Z</time>
      </trkpt>
      <trkpt lat="45.78325" lon="4.30766">
        <ele>506</ele>
        <time>2025-07-23T00:09:00Z</time>
      </trkpt>
      <trkpt lat="45.7834" lon="4.3078">
        <ele>507</ele>
        <time>2025-07-23T00:09:14Z</time>
      </trkpt>
      <trkpt lat="45.78347" lon="4.30789">
        <ele>508</ele>
        <time>2025-07-23T00:09:22Z</time>
      </trkpt>
      <trkpt lat="45.7835" lon="4.30799">
        <ele>508</ele>
        <time>2025-07-23T00:09:28Z</time>
      </trkpt>
      <trkpt lat="45.78357" lon="4.30826">
        <ele>508</ele>
        <time>2025-07-23T00:09:44Z</time>
      </trkpt>
      <trkpt lat="45.78362" lon="4.30851">
        <ele>508</ele>
        <time>2025-07-23T00:09:58Z</time>
      </trkpt>
      <trkpt lat="45.78361" lon="4.30865">
        <ele>507</ele>
        <time>2025-07-23T00:10:06Z</time>
      </trkpt>
      <trkpt lat="45.7836" lon="4.30879">
        <ele>506</ele>
        <time>2025-07-23T00:10:14Z</time>
      </trkpt>
      <trkpt lat="45.78358" lon="4.30889">
        <ele>505</ele>
        <time>2025-07-23T00:10:20Z</time>
      </trkpt>
      <trkpt lat="45.78354" lon="4.30897">
        <ele>503</ele>
        <time>2025-07-23T00:10:25Z</time>
      </trkpt>
      <trkpt lat="45.78334" lon="4.30925">
        <ele>496</ele>
        <time>2025-07-23T00:10:48Z</time>
      </trkpt>
      <trkpt lat="45.7833" lon="4.30925">
        <ele>495</ele>
        <time>2025-07-23T00:10:51Z</time>
      </trkpt>
      <trkpt lat="45.78325" lon="4.30928">
        <ele>494</ele>
        <time>2025-07-23T00:10:55Z</time>
      </trkpt>
      <trkpt lat="45.78321" lon="4.30933">
        <ele>494</ele>
        <time>2025-07-23T00:11:00Z</time>
      </trkpt>
      <trkpt lat="45.78316" lon="4.30949">
        <ele>494</ele>
        <time>2025-07-23T00:11:09Z</time>
      </trkpt>
      <trkpt lat="45.78313" lon="4.30952">
        <ele>494</ele>
        <time>2025-07-23T00:11:12Z</time>
      </trkpt>
      <trkpt lat="45.78308" lon="4.30954">
        <ele>493</ele>
        <time>2025-07-23T00:11:16Z</time>
      </trkpt>
      <trkpt lat="45.78308" lon="4.30959">
        <ele>493</ele>
        <time>2025-07-23T00:11:19Z</time>
      </trkpt>
      <trkpt lat="45.783" lon="4.30988">
        <ele>494</ele>
        <time>2025-07-23T00:11:37Z</time>
      </trkpt>
      <trkpt lat="45.78298" lon="4.31009">
        <ele>494</ele>
        <time>2025-07-23T00:11:49Z</time>
      </trkpt>
      <trkpt lat="45.783" lon="4.31033">
        <ele>496</ele>
        <time>2025-07-23T00:12:02Z</time>
      </trkpt>
      <trkpt lat="45.7829" lon="4.31063">
        <ele>496</ele>
        <time>2025-07-23T00:12:21Z</time>
      </trkpt>
      <trkpt lat="45.78286" lon="4.31071">
        <ele>495</ele>
        <time>2025-07-23T00:12:26Z</time>
      </trkpt>
      <trkpt lat="45.78286" lon="4.3109">
        <ele>496</ele>
        <time>2025-07-23T00:12:37Z</time>
      </trkpt>
      <trkpt lat="45.78282" lon="4.31106">
        <ele>495</ele>
        <time>2025-07-23T00:12:46Z</time>
      </trkpt>
      <trkpt lat="45.78281" lon="4.3112">
        <ele>495</ele>
        <time>2025-07-23T00:12:54Z</time>
      </trkpt>
      <trkpt lat="45.78274" lon="4.31156">
        <ele>493</ele>
        <time>2025-07-23T00:13:15Z</time>
      </trkpt>
      <trkpt lat="45.7825" lon="4.31215">
        <ele>492</ele>
        <time>2025-07-23T00:13:53Z</time>
      </trkpt>
      <trkpt lat="45.78238" lon="4.3123">
        <ele>493</ele>
        <time>2025-07-23T00:14:06Z</time>
      </trkpt>
      <trkpt lat="45.78231" lon="4.31246">
        <ele>493</ele>
        <time>2025-07-23T00:14:16Z</time>
      </trkpt>
      <trkpt lat="45.78225" lon="4.31265">
        <ele>494</ele>
        <time>2025-07-23T00:14:28Z</time>
      </trkpt>
      <trkpt lat="45.78219" lon="4.31298">
        <ele>495</ele>
        <time>2025-07-23T00:14:47Z</time>
      </trkpt>
      <trkpt lat="45.78218" lon="4.31308">
        <ele>495</ele>
        <time>2025-07-23T00:14:53Z</time>
      </trkpt>
      <trkpt lat="45.7821" lon="4.3134">
        <ele>495</ele>
        <time>2025-07-23T00:15:12Z</time>
      </trkpt>
      <trkpt lat="45.7821" lon="4.31341">
        <ele>495</ele>
        <time>2025-07-23T00:15:12Z</time>
      </trkpt>
      <trkpt lat="45.78211" lon="4.31381">
        <ele>495</ele>
        <time>2025-07-23T00:15:35Z</time>
      </trkpt>
      <trkpt lat="45.78217" lon="4.31402">
        <ele>496</ele>
        <time>2025-07-23T00:15:47Z</time>
      </trkpt>
      <trkpt lat="45.78226" lon="4.31436">
        <ele>496</ele>
        <time>2025-07-23T00:16:08Z</time>
      </trkpt>
      <trkpt lat="45.78242" lon="4.31477">
        <ele>494</ele>
        <time>2025-07-23T00:16:34Z</time>
      </trkpt>
      <trkpt lat="45.7826" lon="4.31499">
        <ele>493</ele>
        <time>2025-07-23T00:16:53Z</time>
      </trkpt>
      <trkpt lat="45.78281" lon="4.3154">
        <ele>493</ele>
        <time>2025-07-23T00:17:21Z</time>
      </trkpt>
      <trkpt lat="45.78283" lon="4.31541">
        <ele>493</ele>
        <time>2025-07-23T00:17:23Z</time>
      </trkpt>
      <trkpt lat="45.78281" lon="4.3154">
        <ele>493</ele>
        <time>2025-07-23T00:17:25Z</time>
      </trkpt>
      <trkpt lat="45.7826" lon="4.31499">
        <ele>493</ele>
        <time>2025-07-23T00:17:53Z</time>
      </trkpt>
      <trkpt lat="45.78242" lon="4.31477">
        <ele>494</ele>
        <time>2025-07-23T00:18:12Z</time>
      </trkpt>
      <trkpt lat="45.78226" lon="4.31436">
        <ele>496</ele>
        <time>2025-07-23T00:18:38Z</time>
      </trkpt>
      <trkpt lat="45.78217" lon="4.31402">
        <ele>496</ele>
        <time>2025-07-23T00:18:58Z</time>
      </trkpt>
      <trkpt lat="45.78211" lon="4.31381">
        <ele>495</ele>
        <time>2025-07-23T00:19:11Z</time>
      </trkpt>
      <trkpt lat="45.7821" lon="4.31341">
        <ele>495</ele>
        <time>2025-07-23T00:19:33Z</time>
      </trkpt>
      <trkpt lat="45.7821" lon="4.3134">
        <ele>495</ele>
        <time>2025-07-23T00:19:34Z</time>
      </trkpt>
      <trkpt lat="45.78216" lon="4.313">
        <ele>495</ele>
        <time>2025-07-23T00:19:57Z</time>
      </trkpt>
      <trkpt lat="45.78241" lon="4.31226">
        <ele>493</ele>
        <time>2025-07-23T00:20:43Z</time>
      </trkpt>
      <trkpt lat="45.78251" lon="4.31213">
        <ele>492</ele>
        <time>2025-07-23T00:20:54Z</time>
      </trkpt>
      <trkpt lat="45.78274" lon="4.31156">
        <ele>493</ele>
        <time>2025-07-23T00:21:30Z</time>
      </trkpt>
      <trkpt lat="45.78281" lon="4.3112">
        <ele>495</ele>
        <time>2025-07-23T00:21:51Z</time>
      </trkpt>
      <trkpt lat="45.78282" lon="4.31106">
        <ele>495</ele>
        <time>2025-07-23T00:21:59Z</time>
      </trkpt>
      <trkpt lat="45.78286" lon="4.3109">
        <ele>496</ele>
        <time>2025-07-23T00:22:09Z</time>
      </trkpt>
      <trkpt lat="45.78286" lon="4.31071">
        <ele>495</ele>
        <time>2025-07-23T00:22:19Z</time>
      </trkpt>
      <trkpt lat="45.7829" lon="4.31063">
        <ele>496</ele>
        <time>2025-07-23T00:22:25Z</time>
      </trkpt>
      <trkpt lat="45.783" lon="4.31033">
        <ele>496</ele>
        <time>2025-07-23T00:22:43Z</time>
      </trkpt>
      <trkpt lat="45.78298" lon="4.31009">
        <ele>494</ele>
        <time>2025-07-23T00:22:57Z</time>
      </trkpt>
      <trkpt lat="45.783" lon="4.30988">
        <ele>494</ele>
        <time>2025-07-23T00:23:09Z</time>
      </trkpt>
      <trkpt lat="45.78308" lon="4.30959">
        <ele>493</ele>
        <time>2025-07-23T00:23:26Z</time>
      </trkpt>
      <trkpt lat="45.78308" lon="4.30954">
        <ele>493</ele>
        <time>2025-07-23T00:23:29Z</time>
      </trkpt>
      <trkpt lat="45.78309" lon="4.30943">
        <ele>493</ele>
        <time>2025-07-23T00:23:35Z</time>
      </trkpt>
      <trkpt lat="45.78306" lon="4.30932">
        <ele>492</ele>
        <time>2025-07-23T00:23:42Z</time>
      </trkpt>
      <trkpt lat="45.783" lon="4.30933">
        <ele>491</ele>
        <time>2025-07-23T00:23:46Z</time>
      </trkpt>
      <trkpt lat="45.7829" lon="4.30941">
        <ele>490</ele>
        <time>2025-07-23T00:23:56Z</time>
      </trkpt>
      <trkpt lat="45.7828" lon="4.30937">
        <ele>488</ele>
        <time>2025-07-23T00:24:04Z</time>
      </trkpt>
      <trkpt lat="45.78267" lon="4.30938">
        <ele>486</ele>
        <time>2025-07-23T00:24:14Z</time>
      </trkpt>
      <trkpt lat="45.78246" lon="4.30917">
        <ele>483</ele>
        <time>2025-07-23T00:24:35Z</time>
      </trkpt>
      <trkpt lat="45.78226" lon="4.30904">
        <ele>483</ele>
        <time>2025-07-23T00:24:52Z</time>
      </trkpt>
      <trkpt lat="45.78211" lon="4.30892">
        <ele>483</ele>
        <time>2025-07-23T00:25:06Z</time>
      </trkpt>
      <trkpt lat="45.78197" lon="4.30887">
        <ele>482</ele>
        <time>2025-07-23T00:25:18Z</time>
      </trkpt>
      <trkpt lat="45.78184" lon="4.30889">
        <ele>482</ele>
        <time>2025-07-23T00:25:28Z</time>
      </trkpt>
      <trkpt lat="45.78173" lon="4.30894">
        <ele>482</ele>
        <time>2025-07-23T00:25:37Z</time>
      </trkpt>
      <trkpt lat="45.78162" lon="4.30895">
        <ele>482</ele>
        <time>2025-07-23T00:25:46Z</time>
      </trkpt>
      <trkpt lat="45.78115" lon="4.30909">
        <ele>481</ele>
        <time>2025-07-23T00:26:25Z</time>
      </trkpt>
      <trkpt lat="45.78103" lon="4.30909">
        <ele>481</ele>
        <time>2025-07-23T00:26:34Z</time>
      </trkpt>
      <trkpt lat="45.78077" lon="4.30905">
        <ele>480</ele>
        <time>2025-07-23T00:26:55Z</time>
      </trkpt>
      <trkpt lat="45.78061" lon="4.30893">
        <ele>480</ele>
        <time>2025-07-23T00:27:10Z</time>
      </trkpt>
      <trkpt lat="45.78032" lon="4.30857">
        <ele>478</ele>
        <time>2025-07-23T00:27:40Z</time>
      </trkpt>
      <trkpt lat="45.78012" lon="4.30847">
        <ele>477</ele>
        <time>2025-07-23T00:27:57Z</time>
      </trkpt>
      <trkpt lat="45.77978" lon="4.30843">
        <ele>479</ele>
        <time>2025-07-23T00:28:25Z</time>
      </trkpt>
      <trkpt lat="45.77961" lon="4.3084">
        <ele>480</ele>
        <time>2025-07-23T00:28:38Z</time>
      </trkpt>
      <trkpt lat="45.77937" lon="4.30839">
        <ele>481</ele>
        <time>2025-07-23T00:28:58Z</time>
      </trkpt>
      <trkpt lat="45.77927" lon="4.30826">
        <ele>481</ele>
        <time>2025-07-23T00:29:08Z</time>
      </trkpt>
      <trkpt lat="45.77922" lon="4.3081">
        <ele>480</ele>
        <time>2025-07-23T00:29:18Z</time>
      </trkpt>
      <trkpt lat="45.77916" lon="4.30799">
        <ele>479</ele>
        <time>2025-07-23T00:29:26Z</time>
      </trkpt>
      <trkpt lat="45.77908" lon="4.30788">
        <ele>481</ele>
        <time>2025-07-23T00:29:35Z</time>
      </trkpt>
      <trkpt lat="45.77894" lon="4.30775">
        <ele>486</ele>
        <time>2025-07-23T00:29:48Z</time>
      </trkpt>
      <trkpt lat="45.77886" lon="4.30771">
        <ele>488</ele>
        <time>2025-07-23T00:29:55Z</time>
      </trkpt>
      <trkpt lat="45.77872" lon="4.30763">
        <ele>493</ele>
        <time>2025-07-23T00:30:07Z</time>
      </trkpt>
      <trkpt lat="45.77846" lon="4.30725">
        <ele>501</ele>
        <time>2025-07-23T00:30:37Z</time>
      </trkpt>
      <trkpt lat="45.7784" lon="4.30719">
        <ele>503</ele>
        <time>2025-07-23T00:30:43Z</time>
      </trkpt>
      <trkpt lat="45.77835" lon="4.30705">
        <ele>504</ele>
        <time>2025-07-23T00:30:51Z</time>
      </trkpt>
      <trkpt lat="45.77833" lon="4.30691">
        <ele>504</ele>
        <time>2025-07-23T00:30:59Z</time>
      </trkpt>
      <trkpt lat="45.77833" lon="4.30668">
        <ele>503</ele>
        <time>2025-07-23T00:31:12Z</time>
      </trkpt>
      <trkpt lat="45.77846" lon="4.30629">
        <ele>498</ele>
        <time>2025-07-23T00:31:36Z</time>
      </trkpt>
      <trkpt lat="45.77831" lon="4.30611">
        <ele>501</ele>
        <time>2025-07-23T00:31:52Z</time>
      </trkpt>
      <trkpt lat="45.77818" lon="4.306">
        <ele>504</ele>
        <time>2025-07-23T00:32:04Z</time>
      </trkpt>
      <trkpt lat="45.77804" lon="4.30591">
        <ele>506</ele>
        <time>2025-07-23T00:32:16Z</time>
      </trkpt>
      <trkpt lat="45.77791" lon="4.30573">
        <ele>508</ele>
        <time>2025-07-23T00:32:31Z</time>
      </trkpt>
      <trkpt lat="45.77781" lon="4.30554">
        <ele>510</ele>
        <time>2025-07-23T00:32:44Z</time>
      </trkpt>
      <trkpt lat="45.7777" lon="4.30518">
        <ele>511</ele>
        <time>2025-07-23T00:33:06Z</time>
      </trkpt>
      <trkpt lat="45.77755" lon="4.3046">
        <ele>517</ele>
        <time>2025-07-23T00:33:41Z</time>
      </trkpt>
      <trkpt lat="45.77749" lon="4.30442">
        <ele>520</ele>
        <time>2025-07-23T00:33:52Z</time>
      </trkpt>
      <trkpt lat="45.77731" lon="4.30406">
        <ele>525</ele>
        <time>2025-07-23T00:34:17Z</time>
      </trkpt>
      <trkpt lat="45.77721" lon="4.30383">
        <ele>527</ele>
        <time>2025-07-23T00:34:32Z</time>
      </trkpt>
      <trkpt lat="45.77715" lon="4.30378">
        <ele>528</ele>
        <time>2025-07-23T00:34:37Z</time>
      </trkpt>
      <trkpt lat="45.77684" lon="4.30375">
        <ele>531</ele>
        <time>2025-07-23T00:35:02Z</time>
      </trkpt>
      <trkpt lat="45.7765" lon="4.30352">
        <ele>533</ele>
        <time>2025-07-23T00:35:32Z</time>
      </trkpt>
      <trkpt lat="45.77637" lon="4.3034">
        <ele>534</ele>
        <time>2025-07-23T00:35:45Z</time>
      </trkpt>
      <trkpt lat="45.77631" lon="4.30333">
        <ele>534</ele>
        <time>2025-07-23T00:35:51Z</time>
      </trkpt>
      <trkpt lat="45.77611" lon="4.30361">
        <ele>533</ele>
        <time>2025-07-23T00:36:13Z</time>
      </trkpt>
      <trkpt lat="45.77591" lon="4.30366">
        <ele>533</ele>
        <time>2025-07-23T00:36:29Z</time>
      </trkpt>
      <trkpt lat="45.77587" lon="4.30367">
        <ele>533</ele>
        <time>2025-07-23T00:36:33Z</time>
      </trkpt>
      <trkpt lat="45.77581" lon="4.30321">
        <ele>534</ele>
        <time>2025-07-23T00:36:59Z</time>
      </trkpt>
      <trkpt lat="45.7758" lon="4.30289">
        <ele>533</ele>
        <time>2025-07-23T00:37:17Z</time>
      </trkpt>
      <trkpt lat="45.77574" lon="4.30243">
        <ele>531</ele>
        <time>2025-07-23T00:37:43Z</time>
      </trkpt>
      <trkpt lat="45.7756" lon="4.30171">
        <ele>526</ele>
        <time>2025-07-23T00:38:25Z</time>
      </trkpt>
      <trkpt lat="45.77555" lon="4.30137">
        <ele>523</ele>
        <time>2025-07-23T00:38:44Z</time>
      </trkpt>
      <trkpt lat="45.77551" lon="4.30127">
        <ele>522</ele>
        <time>2025-07-23T00:38:50Z</time>
      </trkpt>
      <trkpt lat="45.77551" lon="4.30109">
        <ele>521</ele>
        <time>2025-07-23T00:39:00Z</time>
      </trkpt>
      <trkpt lat="45.77556" lon="4.3009">
        <ele>521</ele>
        <time>2025-07-23T00:39:12Z</time>
      </trkpt>
      <trkpt lat="45.77569" lon="4.3007">
        <ele>523</ele>
        <time>2025-07-23T00:39:27Z</time>
      </trkpt>
      <trkpt lat="45.77572" lon="4.30058">
        <ele>523</ele>
        <time>2025-07-23T00:39:34Z</time>
      </trkpt>
      <trkpt lat="45.77569" lon="4.30031">
        <ele>520</ele>
        <time>2025-07-23T00:39:49Z</time>
      </trkpt>
      <trkpt lat="45.77567" lon="4.30009">
        <ele>518</ele>
        <time>2025-07-23T00:40:02Z</time>
      </trkpt>
      <trkpt lat="45.77563" lon="4.29985">
        <ele>517</ele>
        <time>2025-07-23T00:40:16Z</time>
      </trkpt>
      <trkpt lat="45.77559" lon="4.29972">
        <ele>516</ele>
        <time>2025-07-23T00:40:24Z</time>
      </trkpt>
      <trkpt lat="45.77545" lon="4.29941">
        <ele>513</ele>
        <time>2025-07-23T00:40:44Z</time>
      </trkpt>
      <trkpt lat="45.77534" lon="4.29914">
        <ele>510</ele>
        <time>2025-07-23T00:41:02Z</time>
      </trkpt>
      <trkpt lat="45.77518" lon="4.29838">
        <ele>510</ele>
        <time>2025-07-23T00:41:46Z</time>
      </trkpt>
      <trkpt lat="45.77509" lon="4.29807">
        <ele>510</ele>
        <time>2025-07-23T00:42:05Z</time>
      </trkpt>
      <trkpt lat="45.77497" lon="4.29771">
        <ele>510</ele>
        <time>2025-07-23T00:42:27Z</time>
      </trkpt>
      <trkpt lat="45.77481" lon="4.29743">
        <ele>509</ele>
        <time>2025-07-23T00:42:47Z</time>
      </trkpt>
      <trkpt lat="45.77466" lon="4.29724">
        <ele>507</ele>
        <time>2025-07-23T00:43:03Z</time>
      </trkpt>
      <trkpt lat="45.77448" lon="4.2971">
        <ele>505</ele>
        <time>2025-07-23T00:43:20Z</time>
      </trkpt>
      <trkpt lat="45.77405" lon="4.29683">
        <ele>503</ele>
        <time>2025-07-23T00:43:57Z</time>
      </trkpt>
      <trkpt lat="45.77394" lon="4.29673">
        <ele>503</ele>
        <time>2025-07-23T00:44:08Z</time>
      </trkpt>
      <trkpt lat="45.7734" lon="4.29645">
        <ele>500</ele>
        <time>2025-07-23T00:44:54Z</time>
      </trkpt>
      <trkpt lat="45.77319" lon="4.2963">
        <ele>498</ele>
        <time>2025-07-23T00:45:12Z</time>
      </trkpt>
      <trkpt lat="45.77273" lon="4.29583">
        <ele>495</ele>
        <time>2025-07-23T00:45:58Z</time>
      </trkpt>
      <trkpt lat="45.77223" lon="4.29528">
        <ele>490</ele>
        <time>2025-07-23T00:46:48Z</time>
      </trkpt>
      <trkpt lat="45.77215" lon="4.29516">
        <ele>489</ele>
        <time>2025-07-23T00:46:57Z</time>
      </trkpt>
      <trkpt lat="45.7721" lon="4.29512">
        <ele>489</ele>
        <time>2025-07-23T00:47:02Z</time>
      </trkpt>
      <trkpt lat="45.77154" lon="4.29457">
        <ele>481</ele>
        <time>2025-07-23T00:47:56Z</time>
      </trkpt>
      <trkpt lat="45.77135" lon="4.29446">
        <ele>478</ele>
        <time>2025-07-23T00:48:13Z</time>
      </trkpt>
      <trkpt lat="45.77113" lon="4.29436">
        <ele>475</ele>
        <time>2025-07-23T00:48:31Z</time>
      </trkpt>
      <trkpt lat="45.77068" lon="4.29422">
        <ele>470</ele>
        <time>2025-07-23T00:49:08Z</time>
      </trkpt>
      <trkpt lat="45.7706" lon="4.29422">
        <ele>469</ele>
        <time>2025-07-23T00:49:14Z</time>
      </trkpt>
      <trkpt lat="45.77039" lon="4.29421">
        <ele>468</ele>
        <time>2025-07-23T00:49:31Z</time>
      </trkpt>
      <trkpt lat="45.77014" lon="4.29421">
        <ele>466</ele>
        <time>2025-07-23T00:49:51Z</time>
      </trkpt>
      <trkpt lat="45.76987" lon="4.29423">
        <ele>465</ele>
        <time>2025-07-23T00:50:13Z</time>
      </trkpt>
      <trkpt lat="45.76949" lon="4.29422">
        <ele>464</ele>
        <time>2025-07-23T00:50:43Z</time>
      </trkpt>
      <trkpt lat="45.76935" lon="4.29418">
        <ele>464</ele>
        <time>2025-07-23T00:50:55Z</time>
      </trkpt>
      <trkpt lat="45.76853" lon="4.29389">
        <ele>456</ele>
        <time>2025-07-23T00:52:02Z</time>
      </trkpt>
      <trkpt lat="45.76804" lon="4.29366">
        <ele>451</ele>
        <time>2025-07-23T00:52:44Z</time>
      </trkpt>
      <trkpt lat="45.76772" lon="4.29353">
        <ele>448</ele>
        <time>2025-07-23T00:53:10Z</time>
      </trkpt>
      <trkpt lat="45.76748" lon="4.2934">
        <ele>447</ele>
        <time>2025-07-23T00:53:31Z</time>
      </trkpt>
      <trkpt lat="45.76732" lon="4.29326">
        <ele>444</ele>
        <time>2025-07-23T00:53:46Z</time>
      </trkpt>
      <trkpt lat="45.76711" lon="4.29311">
        <ele>439</ele>
        <time>2025-07-23T00:54:05Z</time>
      </trkpt>
      <trkpt lat="45.76694" lon="4.29303">
        <ele>437</ele>
        <time>2025-07-23T00:54:19Z</time>
      </trkpt>
      <trkpt lat="45.76688" lon="4.29318">
        <ele>438</ele>
        <time>2025-07-23T00:54:29Z</time>
      </trkpt>
      <trkpt lat="45.76679" lon="4.29346">
        <ele>438</ele>
        <time>2025-07-23T00:54:46Z</time>
      </trkpt>
      <trkpt lat="45.76663" lon="4.29378">
        <ele>433</ele>
        <time>2025-07-23T00:55:08Z</time>
      </trkpt>
      <trkpt lat="45.76657" lon="4.29395">
        <ele>430</ele>
        <time>2025-07-23T00:55:19Z</time>
      </trkpt>
      <trkpt lat="45.76651" lon="4.29401">
        <ele>428</ele>
        <time>2025-07-23T00:55:24Z</time>
      </trkpt>
      <trkpt lat="45.76645" lon="4.29403">
        <ele>427</ele>
        <time>2025-07-23T00:55:29Z</time>
      </trkpt>
      <trkpt lat="45.7664" lon="4.29408">
        <ele>426</ele>
        <time>2025-07-23T00:55:34Z</time>
      </trkpt>
      <trkpt lat="45.76624" lon="4.29409">
        <ele>423</ele>
        <time>2025-07-23T00:55:47Z</time>
      </trkpt>
      <trkpt lat="45.76594" lon="4.29401">
        <ele>419</ele>
        <time>2025-07-23T00:56:11Z</time>
      </trkpt>
      <trkpt lat="45.7656" lon="4.29393">
        <ele>418</ele>
        <time>2025-07-23T00:56:39Z</time>
      </trkpt>
      <trkpt lat="45.76545" lon="4.29365">
        <ele>418</ele>
        <time>2025-07-23T00:56:59Z</time>
      </trkpt>
      <trkpt lat="45.76534" lon="4.29328">
        <ele>417</ele>
        <time>2025-07-23T00:57:21Z</time>
      </trkpt>
      <trkpt lat="45.76529" lon="4.29264">
        <ele>413</ele>
        <time>2025-07-23T00:57:57Z</time>
      </trkpt>
      <trkpt lat="45.76536" lon="4.29215">
        <ele>409</ele>
        <time>2025-07-23T00:58:25Z</time>
      </trkpt>
      <trkpt lat="45.76542" lon="4.29203">
        <ele>409</ele>
        <time>2025-07-23T00:58:33Z</time>
      </trkpt>
      <trkpt lat="45.76542" lon="4.29196">
        <ele>408</ele>
        <time>2025-07-23T00:58:37Z</time>
      </trkpt>
      <trkpt lat="45.76542" lon="4.29189">
        <ele>407</ele>
        <time>2025-07-23T00:58:41Z</time>
      </trkpt>
      <trkpt lat="45.76537" lon="4.29178">
        <ele>405</ele>
        <time>2025-07-23T00:58:49Z</time>
      </trkpt>
      <trkpt lat="45.76527" lon="4.29181">
        <ele>405</ele>
        <time>2025-07-23T00:58:57Z</time>
      </trkpt>
      <trkpt lat="45.76505" lon="4.29187">
        <ele>404</ele>
        <time>2025-07-23T00:59:15Z</time>
      </trkpt>
      <trkpt lat="45.76498" lon="4.29188">
        <ele>404</ele>
        <time>2025-07-23T00:59:20Z</time>
      </trkpt>
      <trkpt lat="45.7649" lon="4.29192">
        <ele>404</ele>
        <time>2025-07-23T00:59:27Z</time>
      </trkpt>
      <trkpt lat="45.76486" lon="4.29186">
        <ele>404</ele>
        <time>2025-07-23T00:59:32Z</time>
      </trkpt>
      <trkpt lat="45.76439" lon="4.29191">
        <ele>406</ele>
        <time>2025-07-23T01:00:09Z</time>
      </trkpt>
      <trkpt lat="45.76412" lon="4.29186">
        <ele>406</ele>
        <time>2025-07-23T01:00:31Z</time>
      </trkpt>
      <trkpt lat="45.76346" lon="4.29171">
        <ele>406</ele>
        <time>2025-07-23T01:01:25Z</time>
      </trkpt>
      <trkpt lat="45.76336" lon="4.29164">
        <ele>406</ele>
        <time>2025-07-23T01:01:34Z</time>
      </trkpt>
      <trkpt lat="45.76328" lon="4.29157">
        <ele>406</ele>
        <time>2025-07-23T01:01:41Z</time>
      </trkpt>
      <trkpt lat="45.76321" lon="4.29142">
        <ele>405</ele>
        <time>2025-07-23T01:01:51Z</time>
      </trkpt>
      <trkpt lat="45.76312" lon="4.2912">
        <ele>404</ele>
        <time>2025-07-23T01:02:05Z</time>
      </trkpt>
      <trkpt lat="45.76309" lon="4.29114">
        <ele>403</ele>
        <time>2025-07-23T01:02:10Z</time>
      </trkpt>
      <trkpt lat="45.76296" lon="4.29075">
        <ele>401</ele>
        <time>2025-07-23T01:02:34Z</time>
      </trkpt>
      <trkpt lat="45.76277" lon="4.29025">
        <ele>400</ele>
        <time>2025-07-23T01:03:06Z</time>
      </trkpt>
      <trkpt lat="45.76267" lon="4.29002">
        <ele>399</ele>
        <time>2025-07-23T01:03:21Z</time>
      </trkpt>
      <trkpt lat="45.76256" lon="4.28988">
        <ele>399</ele>
        <time>2025-07-23T01:03:32Z</time>
      </trkpt>
      <trkpt lat="45.7623" lon="4.28968">
        <ele>400</ele>
        <time>2025-07-23T01:03:56Z</time>
      </trkpt>
      <trkpt lat="45.762" lon="4.28953">
        <ele>401</ele>
        <time>2025-07-23T01:04:22Z</time>
      </trkpt>
      <trkpt lat="45.7617" lon="4.28947">
        <ele>401</ele>
        <time>2025-07-23T01:04:46Z</time>
      </trkpt>
      <trkpt lat="45.76122" lon="4.28948">
        <ele>401</ele>
        <time>2025-07-23T01:05:24Z</time>
      </trkpt>
      <trkpt lat="45.76035" lon="4.28954">
        <ele>399</ele>
        <time>2025-07-23T01:06:34Z</time>
      </trkpt>
      <trkpt lat="45.75987" lon="4.28954">
        <ele>398</ele>
        <time>2025-07-23T01:07:12Z</time>
      </trkpt>
      <trkpt lat="45.7597" lon="4.28951">
        <ele>398</ele>
        <time>2025-07-23T01:07:26Z</time>
      </trkpt>
      <trkpt lat="45.75954" lon="4.28943">
        <ele>398</ele>
        <time>2025-07-23T01:07:40Z</time>
      </trkpt>
      <trkpt lat="45.75944" lon="4.28934">
        <ele>398</ele>
        <time>2025-07-23T01:07:49Z</time>
      </trkpt>
      <trkpt lat="45.75882" lon="4.28858">
        <ele>400</ele>
        <time>2025-07-23T01:08:54Z</time>
      </trkpt>
      <trkpt lat="45.75803" lon="4.28763">
        <ele>402</ele>
        <time>2025-07-23T01:10:17Z</time>
      </trkpt>
      <trkpt lat="45.75795" lon="4.28745">
        <ele>403</ele>
        <time>2025-07-23T01:10:29Z</time>
      </trkpt>
      <trkpt lat="45.75794" lon="4.28738">
        <ele>403</ele>
        <time>2025-07-23T01:10:33Z</time>
      </trkpt>
      <trkpt lat="45.75794" lon="4.28727">
        <ele>402</ele>
        <time>2025-07-23T01:10:39Z</time>
      </trkpt>
      <trkpt lat="45.75802" lon="4.28682">
        <ele>399</ele>
        <time>2025-07-23T01:11:05Z</time>
      </trkpt>
      <trkpt lat="45.75802" lon="4.28669">
        <ele>398</ele>
        <time>2025-07-23T01:11:12Z</time>
      </trkpt>
      <trkpt lat="45.75801" lon="4.28657">
        <ele>398</ele>
        <time>2025-07-23T01:11:19Z</time>
      </trkpt>
      <trkpt lat="45.75796" lon="4.28641">
        <ele>399</ele>
        <time>2025-07-23T01:11:29Z</time>
      </trkpt>
      <trkpt lat="45.75789" lon="4.28627">
        <ele>399</ele>
        <time>2025-07-23T01:11:38Z</time>
      </trkpt>
      <trkpt lat="45.75777" lon="4.28616">
        <ele>399</ele>
        <time>2025-07-23T01:11:50Z</time>
      </trkpt>
      <trkpt lat="45.75765" lon="4.28608">
        <ele>398</ele>
        <time>2025-07-23T01:12:00Z</time>
      </trkpt>
      <trkpt lat="45.75751" lon="4.28604">
        <ele>398</ele>
        <time>2025-07-23T01:12:12Z</time>
      </trkpt>
      <trkpt lat="45.75705" lon="4.28602">
        <ele>396</ele>
        <time>2025-07-23T01:12:49Z</time>
      </trkpt>
      <trkpt lat="45.75674" lon="4.28593">
        <ele>394</ele>
        <time>2025-07-23T01:13:14Z</time>
      </trkpt>
      <trkpt lat="45.75665" lon="4.28587">
        <ele>393</ele>
        <time>2025-07-23T01:13:22Z</time>
      </trkpt>
      <trkpt lat="45.75655" lon="4.28583">
        <ele>392</ele>
        <time>2025-07-23T01:13:30Z</time>
      </trkpt>
      <trkpt lat="45.75624" lon="4.28576">
        <ele>391</ele>
        <time>2025-07-23T01:13:55Z</time>
      </trkpt>
      <trkpt lat="45.75572" lon="4.28566">
        <ele>390</ele>
        <time>2025-07-23T01:14:37Z</time>
      </trkpt>
      <trkpt lat="45.75546" lon="4.28549">
        <ele>390</ele>
        <time>2025-07-23T01:15:00Z</time>
      </trkpt>
      <trkpt lat="45.75504" lon="4.28538">
        <ele>388</ele>
        <time>2025-07-23T01:15:35Z</time>
      </trkpt>
      <trkpt lat="45.75498" lon="4.2854">
        <ele>387</ele>
        <time>2025-07-23T01:15:39Z</time>
      </trkpt>
      <trkpt lat="45.75471" lon="4.28536">
        <ele>386</ele>
        <time>2025-07-23T01:16:01Z</time>
      </trkpt>
      <trkpt lat="45.75461" lon="4.28528">
        <ele>384</ele>
        <time>2025-07-23T01:16:10Z</time>
      </trkpt>
      <trkpt lat="45.75425" lon="4.28512">
        <ele>380</ele>
        <time>2025-07-23T01:16:41Z</time>
      </trkpt>
      <trkpt lat="45.75345" lon="4.28498">
        <ele>377</ele>
        <time>2025-07-23T01:17:45Z</time>
      </trkpt>
      <trkpt lat="45.75251" lon="4.28476">
        <ele>379</ele>
        <time>2025-07-23T01:19:01Z</time>
      </trkpt>
      <trkpt lat="45.75209" lon="4.28473">
        <ele>380</ele>
        <time>2025-07-23T01:19:35Z</time>
      </trkpt>
      <trkpt lat="45.75186" lon="4.28484">
        <ele>379</ele>
        <time>2025-07-23T01:19:54Z</time>
      </trkpt>
      <trkpt lat="45.75099" lon="4.28529">
        <ele>379</ele>
        <time>2025-07-23T01:21:08Z</time>
      </trkpt>
      <trkpt lat="45.75081" lon="4.28544">
        <ele>379</ele>
        <time>2025-07-23T01:21:25Z</time>
      </trkpt>
      <trkpt lat="45.75064" lon="4.28553">
        <ele>380</ele>
        <time>2025-07-23T01:21:40Z</time>
      </trkpt>
      <trkpt lat="45.75041" lon="4.28556">
        <ele>381</ele>
        <time>2025-07-23T01:21:58Z</time>
      </trkpt>
      <trkpt lat="45.75017" lon="4.28533">
        <ele>379</ele>
        <time>2025-07-23T01:22:21Z</time>
      </trkpt>
      <trkpt lat="45.74981" lon="4.28507">
        <ele>376</ele>
        <time>2025-07-23T01:22:54Z</time>
      </trkpt>
      <trkpt lat="45.74905" lon="4.28456">
        <ele>374</ele>
        <time>2025-07-23T01:24:01Z</time>
      </trkpt>
      <trkpt lat="45.74876" lon="4.28445">
        <ele>375</ele>
        <time>2025-07-23T01:24:25Z</time>
      </trkpt>
      <trkpt lat="45.7486" lon="4.28437">
        <ele>375</ele>
        <time>2025-07-23T01:24:38Z</time>
      </trkpt>
      <trkpt lat="45.74835" lon="4.28417">
        <ele>373</ele>
        <time>2025-07-23T01:25:01Z</time>
      </trkpt>
      <trkpt lat="45.74809" lon="4.28401">
        <ele>374</ele>
        <time>2025-07-23T01:25:24Z</time>
      </trkpt>
      <trkpt lat="45.74797" lon="4.28391">
        <ele>375</ele>
        <time>2025-07-23T01:25:35Z</time>
      </trkpt>
      <trkpt lat="45.74794" lon="4.28385">
        <ele>374</ele>
        <time>2025-07-23T01:25:39Z</time>
      </trkpt>
      <trkpt lat="45.74792" lon="4.28378">
        <ele>374</ele>
        <time>2025-07-23T01:25:43Z</time>
      </trkpt>
      <trkpt lat="45.74791" lon="4.28356">
        <ele>371</ele>
        <time>2025-07-23T01:25:56Z</time>
      </trkpt>
      <trkpt lat="45.74797" lon="4.28343">
        <ele>369</ele>
        <time>2025-07-23T01:26:04Z</time>
      </trkpt>
      <trkpt lat="45.74801" lon="4.28331">
        <ele>367</ele>
        <time>2025-07-23T01:26:12Z</time>
      </trkpt>
      <trkpt lat="45.74798" lon="4.28319">
        <ele>367</ele>
        <time>2025-07-23T01:26:19Z</time>
      </trkpt>
      <trkpt lat="45.74797" lon="4.28302">
        <ele>366</ele>
        <time>2025-07-23T01:26:28Z</time>
      </trkpt>
      <trkpt lat="45.74805" lon="4.28296">
        <ele>365</ele>
        <time>2025-07-23T01:26:36Z</time>
      </trkpt>
      <trkpt lat="45.74811" lon="4.28288">
        <ele>364</ele>
        <time>2025-07-23T01:26:42Z</time>
      </trkpt>
      <trkpt lat="45.74812" lon="4.28271">
        <ele>363</ele>
        <time>2025-07-23T01:26:52Z</time>
      </trkpt>
      <trkpt lat="45.74809" lon="4.28266">
        <ele>363</ele>
        <time>2025-07-23T01:26:55Z</time>
      </trkpt>
      <trkpt lat="45.74804" lon="4.28254">
        <ele>362</ele>
        <time>2025-07-23T01:27:03Z</time>
      </trkpt>
      <trkpt lat="45.74795" lon="4.28231">
        <ele>362</ele>
        <time>2025-07-23T01:27:18Z</time>
      </trkpt>
      <trkpt lat="45.74777" lon="4.28228">
        <ele>362</ele>
        <time>2025-07-23T01:27:33Z</time>
      </trkpt>
      <trkpt lat="45.74768" lon="4.28222">
        <ele>361</ele>
        <time>2025-07-23T01:27:40Z</time>
      </trkpt>
      <trkpt lat="45.74747" lon="4.28189">
        <ele>359</ele>
        <time>2025-07-23T01:28:05Z</time>
      </trkpt>
      <trkpt lat="45.74742" lon="4.28171">
        <ele>358</ele>
        <time>2025-07-23T01:28:16Z</time>
      </trkpt>
      <trkpt lat="45.74741" lon="4.28155">
        <ele>358</ele>
        <time>2025-07-23T01:28:25Z</time>
      </trkpt>
      <trkpt lat="45.74736" lon="4.2814">
        <ele>358</ele>
        <time>2025-07-23T01:28:35Z</time>
      </trkpt>
      <trkpt lat="45.7473" lon="4.28128">
        <ele>357</ele>
        <time>2025-07-23T01:28:43Z</time>
      </trkpt>
      <trkpt lat="45.74717" lon="4.28107">
        <ele>357</ele>
        <time>2025-07-23T01:28:58Z</time>
      </trkpt>
      <trkpt lat="45.74708" lon="4.28095">
        <ele>357</ele>
        <time>2025-07-23T01:29:08Z</time>
      </trkpt>
      <trkpt lat="45.74696" lon="4.28074">
        <ele>357</ele>
        <time>2025-07-23T01:29:23Z</time>
      </trkpt>
      <trkpt lat="45.7469" lon="4.28058">
        <ele>356</ele>
        <time>2025-07-23T01:29:34Z</time>
      </trkpt>
      <trkpt lat="45.74684" lon="4.28032">
        <ele>356</ele>
        <time>2025-07-23T01:29:49Z</time>
      </trkpt>
      <trkpt lat="45.74675" lon="4.27994">
        <ele>355</ele>
        <time>2025-07-23T01:30:11Z</time>
      </trkpt>
      <trkpt lat="45.74664" lon="4.27985">
        <ele>355</ele>
        <time>2025-07-23T01:30:21Z</time>
      </trkpt>
      <trkpt lat="45.74617" lon="4.27997">
        <ele>355</ele>
        <time>2025-07-23T01:31:00Z</time>
      </trkpt>
      <trkpt lat="45.74596" lon="4.27993">
        <ele>356</ele>
        <time>2025-07-23T01:31:17Z</time>
      </trkpt>
      <trkpt lat="45.74583" lon="4.27983">
        <ele>355</ele>
        <time>2025-07-23T01:31:28Z</time>
      </trkpt>
      <trkpt lat="45.74572" lon="4.27982">
        <ele>355</ele>
        <time>2025-07-23T01:31:37Z</time>
      </trkpt>
      <trkpt lat="45.7456" lon="4.27986">
        <ele>356</ele>
        <time>2025-07-23T01:31:47Z</time>
      </trkpt>
      <trkpt lat="45.74551" lon="4.27988">
        <ele>356</ele>
        <time>2025-07-23T01:31:54Z</time>
      </trkpt>
      <trkpt lat="45.74539" lon="4.27994">
        <ele>356</ele>
        <time>2025-07-23T01:32:05Z</time>
      </trkpt>
      <trkpt lat="45.74528" lon="4.28003">
        <ele>357</ele>
        <time>2025-07-23T01:32:15Z</time>
      </trkpt>
      <trkpt lat="45.74521" lon="4.28013">
        <ele>357</ele>
        <time>2025-07-23T01:32:23Z</time>
      </trkpt>
      <trkpt lat="45.74512" lon="4.28038">
        <ele>357</ele>
        <time>2025-07-23T01:32:38Z</time>
      </trkpt>
      <trkpt lat="45.74505" lon="4.28049">
        <ele>357</ele>
        <time>2025-07-23T01:32:47Z</time>
      </trkpt>
      <trkpt lat="45.74493" lon="4.28063">
        <ele>357</ele>
        <time>2025-07-23T01:32:59Z</time>
      </trkpt>
      <trkpt lat="45.74449" lon="4.28097">
        <ele>358</ele>
        <time>2025-07-23T01:33:39Z</time>
      </trkpt>
      <trkpt lat="45.74435" lon="4.28111">
        <ele>359</ele>
        <time>2025-07-23T01:33:53Z</time>
      </trkpt>
      <trkpt lat="45.74422" lon="4.28138">
        <ele>360</ele>
        <time>2025-07-23T01:34:11Z</time>
      </trkpt>
      <trkpt lat="45.74403" lon="4.28182">
        <ele>361</ele>
        <time>2025-07-23T01:34:40Z</time>
      </trkpt>
      <trkpt lat="45.74396" lon="4.28192">
        <ele>361</ele>
        <time>2025-07-23T01:34:48Z</time>
      </trkpt>
      <trkpt lat="45.74389" lon="4.28198">
        <ele>361</ele>
        <time>2025-07-23T01:34:55Z</time>
      </trkpt>
      <trkpt lat="45.74378" lon="4.28201">
        <ele>361</ele>
        <time>2025-07-23T01:35:03Z</time>
      </trkpt>
      <trkpt lat="45.74345" lon="4.28217">
        <ele>361</ele>
        <time>2025-07-23T01:35:31Z</time>
      </trkpt>
      <trkpt lat="45.7433" lon="4.28221">
        <ele>361</ele>
        <time>2025-07-23T01:35:44Z</time>
      </trkpt>
      <trkpt lat="45.74266" lon="4.28226">
        <ele>360</ele>
        <time>2025-07-23T01:36:35Z</time>
      </trkpt>
      <trkpt lat="45.74253" lon="4.28225">
        <ele>359</ele>
        <time>2025-07-23T01:36:45Z</time>
      </trkpt>
      <trkpt lat="45.74198" lon="4.28206">
        <ele>358</ele>
        <time>2025-07-23T01:37:31Z</time>
      </trkpt>
      <trkpt lat="45.74179" lon="4.28202">
        <ele>358</ele>
        <time>2025-07-23T01:37:46Z</time>
      </trkpt>
      <trkpt lat="45.74141" lon="4.28201">
        <ele>357</ele>
        <time>2025-07-23T01:38:16Z</time>
      </trkpt>
      <trkpt lat="45.74136" lon="4.28203">
        <ele>357</ele>
        <time>2025-07-23T01:38:21Z</time>
      </trkpt>
      <trkpt lat="45.74133" lon="4.28204">
        <ele>357</ele>
        <time>2025-07-23T01:38:23Z</time>
      </trkpt>
      <trkpt lat="45.74074" lon="4.2824">
        <ele>356</ele>
        <time>2025-07-23T01:39:14Z</time>
      </trkpt>
      <trkpt lat="45.74009" lon="4.28272">
        <ele>355</ele>
        <time>2025-07-23T01:40:09Z</time>
      </trkpt>
      <trkpt lat="45.73994" lon="4.28285">
        <ele>355</ele>
        <time>2025-07-23T01:40:23Z</time>
      </trkpt>
      <trkpt lat="45.73993" lon="4.28286">
        <ele>355</ele>
        <time>2025-07-23T01:40:24Z</time>
      </trkpt>
      <trkpt lat="45.73995" lon="4.28295">
        <ele>355</ele>
        <time>2025-07-23T01:40:30Z</time>
      </trkpt>
      <trkpt lat="45.74004" lon="4.28324">
        <ele>355</ele>
        <time>2025-07-23T01:40:47Z</time>
      </trkpt>
      <trkpt lat="45.74011" lon="4.28347">
        <ele>356</ele>
        <time>2025-07-23T01:41:01Z</time>
      </trkpt>
      <trkpt lat="45.74014" lon="4.28355">
        <ele>357</ele>
        <time>2025-07-23T01:41:07Z</time>
      </trkpt>
      <trkpt lat="45.74016" lon="4.2836">
        <ele>357</ele>
        <time>2025-07-23T01:41:10Z</time>
      </trkpt>
      <trkpt lat="45.74022" lon="4.28376">
        <ele>358</ele>
        <time>2025-07-23T01:41:20Z</time>
      </trkpt>
      <trkpt lat="45.74033" lon="4.28399">
        <ele>360</ele>
        <time>2025-07-23T01:41:36Z</time>
      </trkpt>
      <trkpt lat="45.7404" lon="4.28414">
        <ele>360</ele>
        <time>2025-07-23T01:41:46Z</time>
      </trkpt>
      <trkpt lat="45.74049" lon="4.2844">
        <ele>361</ele>
        <time>2025-07-23T01:42:02Z</time>
      </trkpt>
      <trkpt lat="45.74052" lon="4.28447">
        <ele>361</ele>
        <time>2025-07-23T01:42:06Z</time>
      </trkpt>
      <trkpt lat="45.74053" lon="4.28459">
        <ele>362</ele>
        <time>2025-07-23T01:42:13Z</time>
      </trkpt>
      <trkpt lat="45.74051" lon="4.28483">
        <ele>362</ele>
        <time>2025-07-23T01:42:27Z</time>
      </trkpt>
      <trkpt lat="45.74049" lon="4.28492">
        <ele>362</ele>
        <time>2025-07-23T01:42:32Z</time>
      </trkpt>
      <trkpt lat="45.74047" lon="4.28514">
        <ele>363</ele>
        <time>2025-07-23T01:42:44Z</time>
      </trkpt>
      <trkpt lat="45.74043" lon="4.28552">
        <ele>364</ele>
        <time>2025-07-23T01:43:06Z</time>
      </trkpt>
      <trkpt lat="45.74043" lon="4.2856">
        <ele>364</ele>
        <time>2025-07-23T01:43:10Z</time>
      </trkpt>
      <trkpt lat="45.74048" lon="4.28572">
        <ele>365</ele>
        <time>2025-07-23T01:43:18Z</time>
      </trkpt>
      <trkpt lat="45.7406" lon="4.28599">
        <ele>367</ele>
        <time>2025-07-23T01:43:36Z</time>
      </trkpt>
      <trkpt lat="45.74062" lon="4.28608">
        <ele>368</ele>
        <time>2025-07-23T01:43:41Z</time>
      </trkpt>
      <trkpt lat="45.74061" lon="4.28614">
        <ele>368</ele>
        <time>2025-07-23T01:43:45Z</time>
      </trkpt>
      <trkpt lat="45.74056" lon="4.28615">
        <ele>368</ele>
        <time>2025-07-23T01:43:49Z</time>
      </trkpt>
      <trkpt lat="45.74051" lon="4.28618">
        <ele>367</ele>
        <time>2025-07-23T01:43:53Z</time>
      </trkpt>
      <trkpt lat="45.74041" lon="4.28626">
        <ele>367</ele>
        <time>2025-07-23T01:44:02Z</time>
      </trkpt>
      <trkpt lat="45.74009" lon="4.28647">
        <ele>366</ele>
        <time>2025-07-23T01:44:30Z</time>
      </trkpt>
      <trkpt lat="45.73978" lon="4.28667">
        <ele>364</ele>
        <time>2025-07-23T01:44:58Z</time>
      </trkpt>
      <trkpt lat="45.7396" lon="4.28683">
        <ele>364</ele>
        <time>2025-07-23T01:45:15Z</time>
      </trkpt>
      <trkpt lat="45.73952" lon="4.28695">
        <ele>363</ele>
        <time>2025-07-23T01:45:24Z</time>
      </trkpt>
      <trkpt lat="45.73943" lon="4.28712">
        <ele>363</ele>
        <time>2025-07-23T01:45:36Z</time>
      </trkpt>
      <trkpt lat="45.73929" lon="4.28756">
        <ele>363</ele>
        <time>2025-07-23T01:46:03Z</time>
      </trkpt>
      <trkpt lat="45.73921" lon="4.28784">
        <ele>363</ele>
        <time>2025-07-23T01:46:20Z</time>
      </trkpt>
      <trkpt lat="45.73914" lon="4.288">
        <ele>363</ele>
        <time>2025-07-23T01:46:30Z</time>
      </trkpt>
      <trkpt lat="45.73909" lon="4.28805">
        <ele>362</ele>
        <time>2025-07-23T01:46:35Z</time>
      </trkpt>
      <trkpt lat="45.73902" lon="4.28809">
        <ele>362</ele>
        <time>2025-07-23T01:46:41Z</time>
      </trkpt>
      <trkpt lat="45.7389" lon="4.2881">
        <ele>361</ele>
        <time>2025-07-23T01:46:51Z</time>
      </trkpt>
      <trkpt lat="45.73852" lon="4.2883">
        <ele>359</ele>
        <time>2025-07-23T01:47:23Z</time>
      </trkpt>
      <trkpt lat="45.73841" lon="4.28836">
        <ele>359</ele>
        <time>2025-07-23T01:47:33Z</time>
      </trkpt>
      <trkpt lat="45.73824" lon="4.28846">
        <ele>358</ele>
        <time>2025-07-23T01:47:47Z</time>
      </trkpt>
      <trkpt lat="45.73806" lon="4.28856">
        <ele>358</ele>
        <time>2025-07-23T01:48:03Z</time>
      </trkpt>
      <trkpt lat="45.73797" lon="4.28859">
        <ele>358</ele>
        <time>2025-07-23T01:48:10Z</time>
      </trkpt>
      <trkpt lat="45.73787" lon="4.28861">
        <ele>358</ele>
        <time>2025-07-23T01:48:18Z</time>
      </trkpt>
      <trkpt lat="45.73784" lon="4.2886">
        <ele>358</ele>
        <time>2025-07-23T01:48:21Z</time>
      </trkpt>
      <trkpt lat="45.73782" lon="4.28859">
        <ele>358</ele>
        <time>2025-07-23T01:48:22Z</time>
      </trkpt>
      <trkpt lat="45.73744" lon="4.2895">
        <ele>363</ele>
        <time>2025-07-23T01:49:22Z</time>
      </trkpt>
      <trkpt lat="45.73743" lon="4.28957">
        <ele>364</ele>
        <time>2025-07-23T01:49:26Z</time>
      </trkpt>
      <trkpt lat="45.73747" lon="4.28989">
        <ele>366</ele>
        <time>2025-07-23T01:49:44Z</time>
      </trkpt>
      <trkpt lat="45.73741" lon="4.2905">
        <ele>368</ele>
        <time>2025-07-23T01:50:18Z</time>
      </trkpt>
      <trkpt lat="45.73733" lon="4.29081">
        <ele>371</ele>
        <time>2025-07-23T01:50:37Z</time>
      </trkpt>
      <trkpt lat="45.7373" lon="4.29116">
        <ele>373</ele>
        <time>2025-07-23T01:50:57Z</time>
      </trkpt>
      <trkpt lat="45.73731" lon="4.29137">
        <ele>374</ele>
        <time>2025-07-23T01:51:08Z</time>
      </trkpt>
      <trkpt lat="45.73733" lon="4.29145">
        <ele>373</ele>
        <time>2025-07-23T01:51:13Z</time>
      </trkpt>
      <trkpt lat="45.73735" lon="4.29149">
        <ele>373</ele>
        <time>2025-07-23T01:51:16Z</time>
      </trkpt>
      <trkpt lat="45.73732" lon="4.29196">
        <ele>374</ele>
        <time>2025-07-23T01:51:42Z</time>
      </trkpt>
      <trkpt lat="45.73727" lon="4.29216">
        <ele>376</ele>
        <time>2025-07-23T01:51:54Z</time>
      </trkpt>
      <trkpt lat="45.73712" lon="4.29263">
        <ele>380</ele>
        <time>2025-07-23T01:52:23Z</time>
      </trkpt>
      <trkpt lat="45.7369" lon="4.29318">
        <ele>385</ele>
        <time>2025-07-23T01:52:58Z</time>
      </trkpt>
      <trkpt lat="45.73678" lon="4.29362">
        <ele>386</ele>
        <time>2025-07-23T01:53:25Z</time>
      </trkpt>
      <trkpt lat="45.73671" lon="4.29409">
        <ele>384</ele>
        <time>2025-07-23T01:53:52Z</time>
      </trkpt>
      <trkpt lat="45.7368" lon="4.29479">
        <ele>379</ele>
        <time>2025-07-23T01:54:31Z</time>
      </trkpt>
      <trkpt lat="45.73665" lon="4.29571">
        <ele>376</ele>
        <time>2025-07-23T01:55:24Z</time>
      </trkpt>
      <trkpt lat="45.73647" lon="4.29637">
        <ele>380</ele>
        <time>2025-07-23T01:56:04Z</time>
      </trkpt>
      <trkpt lat="45.7363" lon="4.29691">
        <ele>384</ele>
        <time>2025-07-23T01:56:37Z</time>
      </trkpt>
      <trkpt lat="45.73602" lon="4.29753">
        <ele>384</ele>
        <time>2025-07-23T01:57:18Z</time>
      </trkpt>
      <trkpt lat="45.73584" lon="4.29781">
        <ele>383</ele>
        <time>2025-07-23T01:57:39Z</time>
      </trkpt>
      <trkpt lat="45.7357" lon="4.29811">
        <ele>383</ele>
        <time>2025-07-23T01:58:00Z</time>
      </trkpt>
      <trkpt lat="45.73569" lon="4.29881">
        <ele>380</ele>
        <time>2025-07-23T01:58:39Z</time>
      </trkpt>
      <trkpt lat="45.73569" lon="4.29888">
        <ele>380</ele>
        <time>2025-07-23T01:58:43Z</time>
      </trkpt>
      <trkpt lat="45.73546" lon="4.29968">
        <ele>383</ele>
        <time>2025-07-23T01:59:31Z</time>
      </trkpt>
      <trkpt lat="45.73521" lon="4.30037">
        <ele>385</ele>
        <time>2025-07-23T02:00:14Z</time>
      </trkpt>
      <trkpt lat="45.73501" lon="4.30112">
        <ele>387</ele>
        <time>2025-07-23T02:00:59Z</time>
      </trkpt>
      <trkpt lat="45.73498" lon="4.30139">
        <ele>388</ele>
        <time>2025-07-23T02:01:15Z</time>
      </trkpt>
      <trkpt lat="45.73501" lon="4.30155">
        <ele>388</ele>
        <time>2025-07-23T02:01:24Z</time>
      </trkpt>
      <trkpt lat="45.73503" lon="4.30171">
        <ele>388</ele>
        <time>2025-07-23T02:01:33Z</time>
      </trkpt>
      <trkpt lat="45.73501" lon="4.30194">
        <ele>389</ele>
        <time>2025-07-23T02:01:46Z</time>
      </trkpt>
      <trkpt lat="45.73479" lon="4.30259">
        <ele>399</ele>
        <time>2025-07-23T02:02:26Z</time>
      </trkpt>
      <trkpt lat="45.73483" lon="4.30268">
        <ele>398</ele>
        <time>2025-07-23T02:02:32Z</time>
      </trkpt>
      <trkpt lat="45.73487" lon="4.30272">
        <ele>397</ele>
        <time>2025-07-23T02:02:36Z</time>
      </trkpt>
      <trkpt lat="45.73507" lon="4.3027">
        <ele>393</ele>
        <time>2025-07-23T02:02:52Z</time>
      </trkpt>
      <trkpt lat="45.73521" lon="4.30278">
        <ele>394</ele>
        <time>2025-07-23T02:03:04Z</time>
      </trkpt>
      <trkpt lat="45.73541" lon="4.30294">
        <ele>397</ele>
        <time>2025-07-23T02:03:23Z</time>
      </trkpt>
      <trkpt lat="45.7356" lon="4.30311">
        <ele>400</ele>
        <time>2025-07-23T02:03:40Z</time>
      </trkpt>
      <trkpt lat="45.73582" lon="4.30317">
        <ele>403</ele>
        <time>2025-07-23T02:03:58Z</time>
      </trkpt>
      <trkpt lat="45.73606" lon="4.30328">
        <ele>405</ele>
        <time>2025-07-23T02:04:19Z</time>
      </trkpt>
      <trkpt lat="45.73632" lon="4.30336">
        <ele>407</ele>
        <time>2025-07-23T02:04:40Z</time>
      </trkpt>
      <trkpt lat="45.73656" lon="4.30345">
        <ele>409</ele>
        <time>2025-07-23T02:05:00Z</time>
      </trkpt>
      <trkpt lat="45.73669" lon="4.30358">
        <ele>413</ele>
        <time>2025-07-23T02:05:12Z</time>
      </trkpt>
      <trkpt lat="45.73679" lon="4.30375">
        <ele>415</ele>
        <time>2025-07-23T02:05:25Z</time>
      </trkpt>
      <trkpt lat="45.73686" lon="4.30395">
        <ele>418</ele>
        <time>2025-07-23T02:05:37Z</time>
      </trkpt>
      <trkpt lat="45.73696" lon="4.30408">
        <ele>419</ele>
        <time>2025-07-23T02:05:48Z</time>
      </trkpt>
      <trkpt lat="45.73701" lon="4.30429">
        <ele>420</ele>
        <time>2025-07-23T02:06:01Z</time>
      </trkpt>
      <trkpt lat="45.73708" lon="4.30461">
        <ele>423</ele>
        <time>2025-07-23T02:06:19Z</time>
      </trkpt>
      <trkpt lat="45.73745" lon="4.30548">
        <ele>423</ele>
        <time>2025-07-23T02:07:16Z</time>
      </trkpt>
      <trkpt lat="45.73754" lon="4.30572">
        <ele>426</ele>
        <time>2025-07-23T02:07:31Z</time>
      </trkpt>
      <trkpt lat="45.73772" lon="4.30588">
        <ele>425</ele>
        <time>2025-07-23T02:07:48Z</time>
      </trkpt>
      <trkpt lat="45.73782" lon="4.30602">
        <ele>424</ele>
        <time>2025-07-23T02:08:00Z</time>
      </trkpt>
      <trkpt lat="45.73797" lon="4.30636">
        <ele>422</ele>
        <time>2025-07-23T02:08:22Z</time>
      </trkpt>
      <trkpt lat="45.73797" lon="4.30654">
        <ele>424</ele>
        <time>2025-07-23T02:08:32Z</time>
      </trkpt>
      <trkpt lat="45.73794" lon="4.30681">
        <ele>425</ele>
        <time>2025-07-23T02:08:47Z</time>
      </trkpt>
      <trkpt lat="45.73787" lon="4.30704">
        <ele>427</ele>
        <time>2025-07-23T02:09:01Z</time>
      </trkpt>
      <trkpt lat="45.73781" lon="4.30762">
        <ele>428</ele>
        <time>2025-07-23T02:09:34Z</time>
      </trkpt>
      <trkpt lat="45.73759" lon="4.3083">
        <ele>429</ele>
        <time>2025-07-23T02:10:16Z</time>
      </trkpt>
      <trkpt lat="45.73738" lon="4.30887">
        <ele>423</ele>
        <time>2025-07-23T02:10:52Z</time>
      </trkpt>
      <trkpt lat="45.73721" lon="4.30923">
        <ele>423</ele>
        <time>2025-07-23T02:11:16Z</time>
      </trkpt>
      <trkpt lat="45.73699" lon="4.30956">
        <ele>427</ele>
        <time>2025-07-23T02:11:42Z</time>
      </trkpt>
      <trkpt lat="45.73677" lon="4.30977">
        <ele>430</ele>
        <time>2025-07-23T02:12:03Z</time>
      </trkpt>
      <trkpt lat="45.73646" lon="4.31035">
        <ele>431</ele>
        <time>2025-07-23T02:12:44Z</time>
      </trkpt>
      <trkpt lat="45.73637" lon="4.31061">
        <ele>429</ele>
        <time>2025-07-23T02:13:00Z</time>
      </trkpt>
      <trkpt lat="45.73603" lon="4.31112">
        <ele>430</ele>
        <time>2025-07-23T02:13:40Z</time>
      </trkpt>
      <trkpt lat="45.73577" lon="4.31165">
        <ele>423</ele>
        <time>2025-07-23T02:14:16Z</time>
      </trkpt>
      <trkpt lat="45.7355" lon="4.31257">
        <ele>430</ele>
        <time>2025-07-23T02:15:12Z</time>
      </trkpt>
      <trkpt lat="45.73544" lon="4.31303">
        <ele>433</ele>
        <time>2025-07-23T02:15:38Z</time>
      </trkpt>
      <trkpt lat="45.73532" lon="4.31351">
        <ele>437</ele>
        <time>2025-07-23T02:16:06Z</time>
      </trkpt>
      <trkpt lat="45.73523" lon="4.31371">
        <ele>440</ele>
        <time>2025-07-23T02:16:19Z</time>
      </trkpt>
      <trkpt lat="45.73515" lon="4.31399">
        <ele>443</ele>
        <time>2025-07-23T02:16:36Z</time>
      </trkpt>
      <trkpt lat="45.73491" lon="4.31427">
        <ele>448</ele>
        <time>2025-07-23T02:17:01Z</time>
      </trkpt>
      <trkpt lat="45.73489" lon="4.3143">
        <ele>448</ele>
        <time>2025-07-23T02:17:03Z</time>
      </trkpt>
      <trkpt lat="45.73482" lon="4.31442">
        <ele>447</ele>
        <time>2025-07-23T02:17:12Z</time>
      </trkpt>
      <trkpt lat="45.7346" lon="4.3146">
        <ele>449</ele>
        <time>2025-07-23T02:17:33Z</time>
      </trkpt>
      <trkpt lat="45.7344" lon="4.31475">
        <ele>450</ele>
        <time>2025-07-23T02:17:51Z</time>
      </trkpt>
      <trkpt lat="45.73421" lon="4.31482">
        <ele>453</ele>
        <time>2025-07-23T02:18:06Z</time>
      </trkpt>
      <trkpt lat="45.73407" lon="4.31483">
        <ele>456</ele>
        <time>2025-07-23T02:18:18Z</time>
      </trkpt>
      <trkpt lat="45.73405" lon="4.31482">
        <ele>456</ele>
        <time>2025-07-23T02:18:19Z</time>
      </trkpt>
      <trkpt lat="45.73399" lon="4.31477">
        <ele>458</ele>
        <time>2025-07-23T02:18:25Z</time>
      </trkpt>
      <trkpt lat="45.73401" lon="4.31466">
        <ele>459</ele>
        <time>2025-07-23T02:18:31Z</time>
      </trkpt>
      <trkpt lat="45.73414" lon="4.31439">
        <ele>462</ele>
        <time>2025-07-23T02:18:49Z</time>
      </trkpt>
      <trkpt lat="45.73415" lon="4.31388">
        <ele>468</ele>
        <time>2025-07-23T02:19:18Z</time>
      </trkpt>
      <trkpt lat="45.73414" lon="4.31336">
        <ele>471</ele>
        <time>2025-07-23T02:19:47Z</time>
      </trkpt>
      <trkpt lat="45.73406" lon="4.31296">
        <ele>472</ele>
        <time>2025-07-23T02:20:10Z</time>
      </trkpt>
      <trkpt lat="45.73403" lon="4.3129">
        <ele>472</ele>
        <time>2025-07-23T02:20:14Z</time>
      </trkpt>
      <trkpt lat="45.73405" lon="4.31285">
        <ele>472</ele>
        <time>2025-07-23T02:20:18Z</time>
      </trkpt>
      <trkpt lat="45.73396" lon="4.31241">
        <ele>474</ele>
        <time>2025-07-23T02:20:43Z</time>
      </trkpt>
      <trkpt lat="45.73375" lon="4.3117">
        <ele>477</ele>
        <time>2025-07-23T02:21:26Z</time>
      </trkpt>
      <trkpt lat="45.73367" lon="4.31139">
        <ele>478</ele>
        <time>2025-07-23T02:21:45Z</time>
      </trkpt>
      <trkpt lat="45.7336" lon="4.31119">
        <ele>479</ele>
        <time>2025-07-23T02:21:57Z</time>
      </trkpt>
      <trkpt lat="45.73358" lon="4.31107">
        <ele>479</ele>
        <time>2025-07-23T02:22:04Z</time>
      </trkpt>
      <trkpt lat="45.73358" lon="4.31095">
        <ele>479</ele>
        <time>2025-07-23T02:22:11Z</time>
      </trkpt>
      <trkpt lat="45.7336" lon="4.31083">
        <ele>478</ele>
        <time>2025-07-23T02:22:18Z</time>
      </trkpt>
      <trkpt lat="45.73378" lon="4.31018">
        <ele>476</ele>
        <time>2025-07-23T02:22:57Z</time>
      </trkpt>
      <trkpt lat="45.73371" lon="4.31">
        <ele>475</ele>
        <time>2025-07-23T02:23:08Z</time>
      </trkpt>
      <trkpt lat="45.73368" lon="4.30977">
        <ele>474</ele>
        <time>2025-07-23T02:23:22Z</time>
      </trkpt>
      <trkpt lat="45.73362" lon="4.30954">
        <ele>471</ele>
        <time>2025-07-23T02:23:35Z</time>
      </trkpt>
      <trkpt lat="45.73359" lon="4.30933">
        <ele>469</ele>
        <time>2025-07-23T02:23:47Z</time>
      </trkpt>
      <trkpt lat="45.73358" lon="4.30926">
        <ele>468</ele>
        <time>2025-07-23T02:23:51Z</time>
      </trkpt>
      <trkpt lat="45.73356" lon="4.30885">
        <ele>463</ele>
        <time>2025-07-23T02:24:14Z</time>
      </trkpt>
      <trkpt lat="45.73345" lon="4.30919">
        <ele>466</ele>
        <time>2025-07-23T02:24:35Z</time>
      </trkpt>
      <trkpt lat="45.73337" lon="4.30931">
        <ele>466</ele>
        <time>2025-07-23T02:24:44Z</time>
      </trkpt>
      <trkpt lat="45.73329" lon="4.30937">
        <ele>467</ele>
        <time>2025-07-23T02:24:52Z</time>
      </trkpt>
      <trkpt lat="45.73318" lon="4.30939">
        <ele>467</ele>
        <time>2025-07-23T02:25:00Z</time>
      </trkpt>
      <trkpt lat="45.73305" lon="4.30938">
        <ele>468</ele>
        <time>2025-07-23T02:25:11Z</time>
      </trkpt>
      <trkpt lat="45.73285" lon="4.30929">
        <ele>467</ele>
        <time>2025-07-23T02:25:28Z</time>
      </trkpt>
      <trkpt lat="45.73253" lon="4.3091">
        <ele>466</ele>
        <time>2025-07-23T02:25:55Z</time>
      </trkpt>
      <trkpt lat="45.73246" lon="4.30908">
        <ele>466</ele>
        <time>2025-07-23T02:26:01Z</time>
      </trkpt>
      <trkpt lat="45.73221" lon="4.30916">
        <ele>471</ele>
        <time>2025-07-23T02:26:22Z</time>
      </trkpt>
      <trkpt lat="45.73215" lon="4.30915">
        <ele>472</ele>
        <time>2025-07-23T02:26:26Z</time>
      </trkpt>
      <trkpt lat="45.73208" lon="4.3091">
        <ele>473</ele>
        <time>2025-07-23T02:26:33Z</time>
      </trkpt>
      <trkpt lat="45.73197" lon="4.30886">
        <ele>473</ele>
        <time>2025-07-23T02:26:49Z</time>
      </trkpt>
      <trkpt lat="45.73187" lon="4.30867">
        <ele>473</ele>
        <time>2025-07-23T02:27:02Z</time>
      </trkpt>
      <trkpt lat="45.73174" lon="4.3085">
        <ele>474</ele>
        <time>2025-07-23T02:27:16Z</time>
      </trkpt>
      <trkpt lat="45.73157" lon="4.30838">
        <ele>476</ele>
        <time>2025-07-23T02:27:31Z</time>
      </trkpt>
      <trkpt lat="45.73119" lon="4.30833">
        <ele>481</ele>
        <time>2025-07-23T02:28:02Z</time>
      </trkpt>
      <trkpt lat="45.731" lon="4.30836">
        <ele>484</ele>
        <time>2025-07-23T02:28:17Z</time>
      </trkpt>
      <trkpt lat="45.73066" lon="4.30851">
        <ele>488</ele>
        <time>2025-07-23T02:28:46Z</time>
      </trkpt>
      <trkpt lat="45.73036" lon="4.30863">
        <ele>489</ele>
        <time>2025-07-23T02:29:11Z</time>
      </trkpt>
      <trkpt lat="45.73024" lon="4.30866">
        <ele>489</ele>
        <time>2025-07-23T02:29:20Z</time>
      </trkpt>
      <trkpt lat="45.73009" lon="4.30867">
        <ele>490</ele>
        <time>2025-07-23T02:29:32Z</time>
      </trkpt>
      <trkpt lat="45.72997" lon="4.30703">
        <ele>491</ele>
        <time>2025-07-23T02:31:05Z</time>
      </trkpt>
      <trkpt lat="45.72998" lon="4.30657">
        <ele>492</ele>
        <time>2025-07-23T02:31:30Z</time>
      </trkpt>
      <trkpt lat="45.73" lon="4.30627">
        <ele>491</ele>
        <time>2025-07-23T02:31:47Z</time>
      </trkpt>
      <trkpt lat="45.73001" lon="4.30614">
        <ele>491</ele>
        <time>2025-07-23T02:31:54Z</time>
      </trkpt>
      <trkpt lat="45.73" lon="4.30627">
        <ele>491</ele>
        <time>2025-07-23T02:32:02Z</time>
      </trkpt>
      <trkpt lat="45.72982" lon="4.30583">
        <ele>490</ele>
        <time>2025-07-23T02:32:30Z</time>
      </trkpt>
      <trkpt lat="45.72969" lon="4.30563">
        <ele>488</ele>
        <time>2025-07-23T02:32:46Z</time>
      </trkpt>
      <trkpt lat="45.72918" lon="4.3054">
        <ele>484</ele>
        <time>2025-07-23T02:33:28Z</time>
      </trkpt>
      <trkpt lat="45.72871" lon="4.30516">
        <ele>481</ele>
        <time>2025-07-23T02:34:08Z</time>
      </trkpt>
      <trkpt lat="45.72852" lon="4.30514">
        <ele>480</ele>
        <time>2025-07-23T02:34:24Z</time>
      </trkpt>
      <trkpt lat="45.72808" lon="4.30505">
        <ele>478</ele>
        <time>2025-07-23T02:34:59Z</time>
      </trkpt>
      <trkpt lat="45.72781" lon="4.30492">
        <ele>477</ele>
        <time>2025-07-23T02:35:22Z</time>
      </trkpt>
      <trkpt lat="45.72756" lon="4.30478">
        <ele>475</ele>
        <time>2025-07-23T02:35:43Z</time>
      </trkpt>
      <trkpt lat="45.72724" lon="4.3044">
        <ele>470</ele>
        <time>2025-07-23T02:36:17Z</time>
      </trkpt>
      <trkpt lat="45.72692" lon="4.30396">
        <ele>464</ele>
        <time>2025-07-23T02:36:52Z</time>
      </trkpt>
      <trkpt lat="45.7268" lon="4.30374">
        <ele>462</ele>
        <time>2025-07-23T02:37:08Z</time>
      </trkpt>
      <trkpt lat="45.72679" lon="4.3037">
        <ele>462</ele>
        <time>2025-07-23T02:37:10Z</time>
      </trkpt>
      <trkpt lat="45.72675" lon="4.30359">
        <ele>461</ele>
        <time>2025-07-23T02:37:17Z</time>
      </trkpt>
      <trkpt lat="45.72671" lon="4.30339">
        <ele>460</ele>
        <time>2025-07-23T02:37:29Z</time>
      </trkpt>
      <trkpt lat="45.72666" lon="4.30296">
        <ele>462</ele>
        <time>2025-07-23T02:37:53Z</time>
      </trkpt>
      <trkpt lat="45.72661" lon="4.3028">
        <ele>462</ele>
        <time>2025-07-23T02:38:03Z</time>
      </trkpt>
      <trkpt lat="45.72649" lon="4.30276">
        <ele>460</ele>
        <time>2025-07-23T02:38:13Z</time>
      </trkpt>
      <trkpt lat="45.72627" lon="4.30293">
        <ele>456</ele>
        <time>2025-07-23T02:38:33Z</time>
      </trkpt>
      <trkpt lat="45.72594" lon="4.30174">
        <ele>452</ele>
        <time>2025-07-23T02:39:44Z</time>
      </trkpt>
      <trkpt lat="45.72587" lon="4.30141">
        <ele>451</ele>
        <time>2025-07-23T02:40:04Z</time>
      </trkpt>
      <trkpt lat="45.7258" lon="4.30155">
        <ele>450</ele>
        <time>2025-07-23T02:40:13Z</time>
      </trkpt>
      <trkpt lat="45.7258" lon="4.30162">
        <ele>450</ele>
        <time>2025-07-23T02:40:17Z</time>
      </trkpt>
      <trkpt lat="45.72286" lon="4.30801">
        <ele>483</ele>
        <time>2025-07-23T02:47:25Z</time>
      </trkpt>
      <trkpt lat="45.72177" lon="4.30776">
        <ele>476</ele>
        <time>2025-07-23T02:48:53Z</time>
      </trkpt>
      <trkpt lat="45.72092" lon="4.3084">
        <ele>483</ele>
        <time>2025-07-23T02:50:10Z</time>
      </trkpt>
      <trkpt lat="45.7206" lon="4.30822">
        <ele>478</ele>
        <time>2025-07-23T02:50:38Z</time>
      </trkpt>
      <trkpt lat="45.72002" lon="4.30847">
        <ele>476</ele>
        <time>2025-07-23T02:51:26Z</time>
      </trkpt>
      <trkpt lat="45.7198" lon="4.30916">
        <ele>474</ele>
        <time>2025-07-23T02:52:09Z</time>
      </trkpt>
      <trkpt lat="45.71996" lon="4.3099">
        <ele>473</ele>
        <time>2025-07-23T02:52:52Z</time>
      </trkpt>
      <trkpt lat="45.71992" lon="4.31061">
        <ele>465</ele>
        <time>2025-07-23T02:53:32Z</time>
      </trkpt>
      <trkpt lat="45.71978" lon="4.31086">
        <ele>460</ele>
        <time>2025-07-23T02:53:50Z</time>
      </trkpt>
      <trkpt lat="45.7187" lon="4.31076">
        <ele>442</ele>
        <time>2025-07-23T02:55:16Z</time>
      </trkpt>
      <trkpt lat="45.71873" lon="4.31061">
        <ele>442</ele>
        <time>2025-07-23T02:55:25Z</time>
      </trkpt>
      <trkpt lat="45.71882" lon="4.31037">
        <ele>443</ele>
        <time>2025-07-23T02:55:40Z</time>
      </trkpt>
      <trkpt lat="45.71884" lon="4.31025">
        <ele>443</ele>
        <time>2025-07-23T02:55:47Z</time>
      </trkpt>
      <trkpt lat="45.71882" lon="4.31037">
        <ele>443</ele>
        <time>2025-07-23T02:55:54Z</time>
      </trkpt>
      <trkpt lat="45.71873" lon="4.31061">
        <ele>442</ele>
        <time>2025-07-23T02:56:09Z</time>
      </trkpt>
      <trkpt lat="45.7187" lon="4.31076">
        <ele>442</ele>
        <time>2025-07-23T02:56:18Z</time>
      </trkpt>
      <trkpt lat="45.71867" lon="4.31088">
        <ele>442</ele>
        <time>2025-07-23T02:56:25Z</time>
      </trkpt>
      <trkpt lat="45.71866" lon="4.31125">
        <ele>444</ele>
        <time>2025-07-23T02:56:46Z</time>
      </trkpt>
      <trkpt lat="45.71862" lon="4.31169">
        <ele>446</ele>
        <time>2025-07-23T02:57:11Z</time>
      </trkpt>
      <trkpt lat="45.71861" lon="4.31207">
        <ele>449</ele>
        <time>2025-07-23T02:57:32Z</time>
      </trkpt>
      <trkpt lat="45.71863" lon="4.31238">
        <ele>452</ele>
        <time>2025-07-23T02:57:49Z</time>
      </trkpt>
      <trkpt lat="45.71851" lon="4.31278">
        <ele>454</ele>
        <time>2025-07-23T02:58:14Z</time>
      </trkpt>
      <trkpt lat="45.71847" lon="4.31301">
        <ele>455</ele>
        <time>2025-07-23T02:58:27Z</time>
      </trkpt>
      <trkpt lat="45.71841" lon="4.31335">
        <ele>457</ele>
        <time>2025-07-23T02:58:47Z</time>
      </trkpt>
      <trkpt lat="45.7184" lon="4.31362">
        <ele>456</ele>
        <time>2025-07-23T02:59:02Z</time>
      </trkpt>
      <trkpt lat="45.71844" lon="4.31401">
        <ele>457</ele>
        <time>2025-07-23T02:59:24Z</time>
      </trkpt>
      <trkpt lat="45.71849" lon="4.31431">
        <ele>460</ele>
        <time>2025-07-23T02:59:41Z</time>
      </trkpt>
      <trkpt lat="45.71843" lon="4.31452">
        <ele>460</ele>
        <time>2025-07-23T02:59:54Z</time>
      </trkpt>
      <trkpt lat="45.71831" lon="4.31476">
        <ele>460</ele>
        <time>2025-07-23T03:00:10Z</time>
      </trkpt>
      <trkpt lat="45.7182" lon="4.31514">
        <ele>462</ele>
        <time>2025-07-23T03:00:33Z</time>
      </trkpt>
      <trkpt lat="45.71813" lon="4.31547">
        <ele>463</ele>
        <time>2025-07-23T03:00:52Z</time>
      </trkpt>
      <trkpt lat="45.71814" lon="4.31575">
        <ele>465</ele>
        <time>2025-07-23T03:01:08Z</time>
      </trkpt>
      <trkpt lat="45.71826" lon="4.31614">
        <ele>465</ele>
        <time>2025-07-23T03:01:32Z</time>
      </trkpt>
      <trkpt lat="45.7184" lon="4.3165">
        <ele>465</ele>
        <time>2025-07-23T03:01:55Z</time>
      </trkpt>
      <trkpt lat="45.71838" lon="4.31679">
        <ele>465</ele>
        <time>2025-07-23T03:02:11Z</time>
      </trkpt>
      <trkpt lat="45.71841" lon="4.31704">
        <ele>465</ele>
        <time>2025-07-23T03:02:25Z</time>
      </trkpt>
      <trkpt lat="45.71841" lon="4.31722">
        <ele>465</ele>
        <time>2025-07-23T03:02:35Z</time>
      </trkpt>
      <trkpt lat="45.71829" lon="4.31787">
        <ele>466</ele>
        <time>2025-07-23T03:03:13Z</time>
      </trkpt>
      <trkpt lat="45.71814" lon="4.31814">
        <ele>469</ele>
        <time>2025-07-23T03:03:32Z</time>
      </trkpt>
      <trkpt lat="45.71792" lon="4.31848">
        <ele>471</ele>
        <time>2025-07-23T03:03:58Z</time>
      </trkpt>
      <trkpt lat="45.71775" lon="4.31879">
        <ele>473</ele>
        <time>2025-07-23T03:04:20Z</time>
      </trkpt>
      <trkpt lat="45.71743" lon="4.31938">
        <ele>476</ele>
        <time>2025-07-23T03:05:02Z</time>
      </trkpt>
      <trkpt lat="45.71723" lon="4.31963">
        <ele>479</ele>
        <time>2025-07-23T03:05:23Z</time>
      </trkpt>
      <trkpt lat="45.71701" lon="4.31987">
        <ele>481</ele>
        <time>2025-07-23T03:05:45Z</time>
      </trkpt>
      <trkpt lat="45.7168" lon="4.32005">
        <ele>481</ele>
        <time>2025-07-23T03:06:05Z</time>
      </trkpt>
      <trkpt lat="45.71665" lon="4.32024">
        <ele>484</ele>
        <time>2025-07-23T03:06:21Z</time>
      </trkpt>
      <trkpt lat="45.71656" lon="4.32093">
        <ele>490</ele>
        <time>2025-07-23T03:07:00Z</time>
      </trkpt>
      <trkpt lat="45.71652" lon="4.32114">
        <ele>492</ele>
        <time>2025-07-23T03:07:13Z</time>
      </trkpt>
      <trkpt lat="45.71649" lon="4.32139">
        <ele>494</ele>
        <time>2025-07-23T03:07:27Z</time>
      </trkpt>
      <trkpt lat="45.71649" lon="4.3217">
        <ele>496</ele>
        <time>2025-07-23T03:07:44Z</time>
      </trkpt>
      <trkpt lat="45.71654" lon="4.32214">
        <ele>498</ele>
        <time>2025-07-23T03:08:09Z</time>
      </trkpt>
      <trkpt lat="45.71656" lon="4.32247">
        <ele>499</ele>
        <time>2025-07-23T03:08:27Z</time>
      </trkpt>
      <trkpt lat="45.71652" lon="4.32282">
        <ele>501</ele>
        <time>2025-07-23T03:08:47Z</time>
      </trkpt>
      <trkpt lat="45.71635" lon="4.32331">
        <ele>503</ele>
        <time>2025-07-23T03:09:18Z</time>
      </trkpt>
      <trkpt lat="45.71626" lon="4.32355">
        <ele>504</ele>
        <time>2025-07-23T03:09:33Z</time>
      </trkpt>
      <trkpt lat="45.71594" lon="4.32407">
        <ele>504</ele>
        <time>2025-07-23T03:10:12Z</time>
      </trkpt>
      <trkpt lat="45.71568" lon="4.32441">
        <ele>506</ele>
        <time>2025-07-23T03:10:40Z</time>
      </trkpt>
      <trkpt lat="45.71567" lon="4.32447">
        <ele>506</ele>
        <time>2025-07-23T03:10:43Z</time>
      </trkpt>
      <trkpt lat="45.7157" lon="4.32447">
        <ele>506</ele>
        <time>2025-07-23T03:10:46Z</time>
      </trkpt>
      <trkpt lat="45.71567" lon="4.32447">
        <ele>506</ele>
        <time>2025-07-23T03:10:48Z</time>
      </trkpt>
      <trkpt lat="45.71559" lon="4.32452">
        <ele>507</ele>
        <time>2025-07-23T03:10:55Z</time>
      </trkpt>
      <trkpt lat="45.7153" lon="4.32481">
        <ele>510</ele>
        <time>2025-07-23T03:11:24Z</time>
      </trkpt>
      <trkpt lat="45.71521" lon="4.32489">
        <ele>511</ele>
        <time>2025-07-23T03:11:32Z</time>
      </trkpt>
      <trkpt lat="45.71517" lon="4.3249">
        <ele>511</ele>
        <time>2025-07-23T03:11:35Z</time>
      </trkpt>
      <trkpt lat="45.71513" lon="4.3249">
        <ele>511</ele>
        <time>2025-07-23T03:11:39Z</time>
      </trkpt>
      <trkpt lat="45.7151" lon="4.32488">
        <ele>511</ele>
        <time>2025-07-23T03:11:41Z</time>
      </trkpt>
      <trkpt lat="45.71507" lon="4.32483">
        <ele>511</ele>
        <time>2025-07-23T03:11:45Z</time>
      </trkpt>
      <trkpt lat="45.71503" lon="4.32469">
        <ele>511</ele>
        <time>2025-07-23T03:11:53Z</time>
      </trkpt>
      <trkpt lat="45.71496" lon="4.32452">
        <ele>511</ele>
        <time>2025-07-23T03:12:04Z</time>
      </trkpt>
      <trkpt lat="45.71485" lon="4.32431">
        <ele>512</ele>
        <time>2025-07-23T03:12:19Z</time>
      </trkpt>
      <trkpt lat="45.71468" lon="4.32402">
        <ele>513</ele>
        <time>2025-07-23T03:12:40Z</time>
      </trkpt>
      <trkpt lat="45.71463" lon="4.3239">
        <ele>514</ele>
        <time>2025-07-23T03:12:48Z</time>
      </trkpt>
      <trkpt lat="45.71457" lon="4.3238">
        <ele>514</ele>
        <time>2025-07-23T03:12:55Z</time>
      </trkpt>
      <trkpt lat="45.71448" lon="4.3237">
        <ele>515</ele>
        <time>2025-07-23T03:13:05Z</time>
      </trkpt>
      <trkpt lat="45.71436" lon="4.32363">
        <ele>516</ele>
        <time>2025-07-23T03:13:15Z</time>
      </trkpt>
      <trkpt lat="45.71425" lon="4.32358">
        <ele>517</ele>
        <time>2025-07-23T03:13:24Z</time>
      </trkpt>
      <trkpt lat="45.71412" lon="4.32356">
        <ele>517</ele>
        <time>2025-07-23T03:13:35Z</time>
      </trkpt>
      <trkpt lat="45.71395" lon="4.32356">
        <ele>517</ele>
        <time>2025-07-23T03:13:48Z</time>
      </trkpt>
      <trkpt lat="45.71382" lon="4.32357">
        <ele>516</ele>
        <time>2025-07-23T03:13:59Z</time>
      </trkpt>
      <trkpt lat="45.71389" lon="4.32278">
        <ele>513</ele>
        <time>2025-07-23T03:14:43Z</time>
      </trkpt>
      <trkpt lat="45.71387" lon="4.32238">
        <ele>511</ele>
        <time>2025-07-23T03:15:06Z</time>
      </trkpt>
      <trkpt lat="45.71378" lon="4.322">
        <ele>510</ele>
        <time>2025-07-23T03:15:28Z</time>
      </trkpt>
      <trkpt lat="45.7136" lon="4.32144">
        <ele>507</ele>
        <time>2025-07-23T03:16:02Z</time>
      </trkpt>
      <trkpt lat="45.71348" lon="4.3208">
        <ele>503</ele>
        <time>2025-07-23T03:16:40Z</time>
      </trkpt>
      <trkpt lat="45.71344" lon="4.32054">
        <ele>503</ele>
        <time>2025-07-23T03:16:54Z</time>
      </trkpt>
    </trkseg>
  </trk>
</gpx>